BAW5 EGLL-RJTT
Flight info
| Callsign | BAW5 |
|---|---|
| Flight time | N/A |
| Altitude | 33000 |
| Route | DET L6 DVR UL9 KONAN UL607 MATUG DCT GUBAX DCT KOMIB DCT VEMUT DCT PEPIK DCT BULEN L605 RIXEN UL605 NAMAN/N0488F350 UL605 YAVRU UL615 TIMOP DCT TBN UG261 NOLGA DCT BARAD M747 SUBUT T916 LEYLA N161 GASBI/K0904F350 N161 RELGE DCT MASAV N161 ARKAM/K0898F370 N161 SARIN/K0891S1130 A368 FKG W188 GOVSA W66 POTOT/K0889S1190 W66 DKO W69 HUR B339 LADIX W34 ANRAT A326 DONVO G597 AGAVO/N0483F390 Y644 EGOBA Y697 LANAT Y71 XAC |
| Aircraft | A35K/H-SDE2E3GHIJ1J3J4J5LM1ORWXY/LB1D1 |
Departure
| Time | N/A |
|---|---|
| Airport | London Heathrow Airport (EGLL) |
Arrival
| Time | 2026-05-05 21:08 |
|---|---|
| Airport | Tokyo Haneda International Airport (RJTT) |
| Time | Latitude | Longitude | Altitude | Speed | Heading |
|---|---|---|---|---|---|
| 2026-05-05 10:44 | 42.63327 | 27.83416 | 33085 ft | 504 kts | 128° |
| 2026-05-05 10:44 | 42.61197 | 27.87056 | 33078 ft | 503 kts | 128° |
| 2026-05-05 10:45 | 42.56851 | 27.94469 | 33083 ft | 502 kts | 128° |
| 2026-05-05 10:45 | 42.52500 | 28.01870 | 33090 ft | 502 kts | 128° |
| 2026-05-05 10:46 | 42.48152 | 28.09259 | 33089 ft | 500 kts | 129° |
| 2026-05-05 10:46 | 42.43833 | 28.16580 | 33088 ft | 496 kts | 129° |
| 2026-05-05 10:47 | 42.39529 | 28.23851 | 33086 ft | 495 kts | 129° |
| 2026-05-05 10:47 | 42.35248 | 28.31066 | 33087 ft | 495 kts | 129° |
| 2026-05-05 10:48 | 42.30939 | 28.38314 | 33085 ft | 494 kts | 129° |
| 2026-05-05 10:48 | 42.26627 | 28.45551 | 33090 ft | 496 kts | 129° |
| 2026-05-05 10:49 | 42.22285 | 28.52818 | 33090 ft | 497 kts | 129° |
| 2026-05-05 10:49 | 42.17943 | 28.60071 | 33090 ft | 497 kts | 129° |
| 2026-05-05 10:50 | 42.13594 | 28.67316 | 33092 ft | 497 kts | 129° |
| 2026-05-05 10:50 | 42.09249 | 28.74550 | 33069 ft | 497 kts | 129° |
| 2026-05-05 10:51 | 42.05365 | 28.82252 | 33088 ft | 497 kts | 123° |
| 2026-05-05 10:51 | 42.01669 | 28.90096 | 33088 ft | 496 kts | 122° |
| 2026-05-05 10:52 | 41.97993 | 28.97959 | 33253 ft | 497 kts | 122° |
| 2026-05-05 10:52 | 41.96153 | 29.01881 | 33608 ft | 495 kts | 123° |
| 2026-05-05 10:52 | 41.94318 | 29.05778 | 33955 ft | 494 kts | 122° |
| 2026-05-05 10:52 | 41.92473 | 29.09684 | 34139 ft | 496 kts | 122° |
| 2026-05-05 10:53 | 41.90623 | 29.13594 | 34364 ft | 496 kts | 122° |
| 2026-05-05 10:53 | 41.88775 | 29.17495 | 34604 ft | 495 kts | 123° |
| 2026-05-05 10:53 | 41.86926 | 29.21391 | 34807 ft | 495 kts | 123° |
| 2026-05-05 10:53 | 41.85096 | 29.25242 | 34980 ft | 496 kts | 123° |
| 2026-05-05 10:54 | 41.83238 | 29.29146 | 35066 ft | 497 kts | 123° |
| 2026-05-05 10:54 | 41.79520 | 29.36969 | 35097 ft | 498 kts | 122° |
| 2026-05-05 10:55 | 41.75816 | 29.44812 | 35071 ft | 498 kts | 122° |
| 2026-05-05 10:55 | 41.72094 | 29.52631 | 35086 ft | 498 kts | 122° |
| 2026-05-05 10:56 | 41.68350 | 29.60441 | 35078 ft | 499 kts | 122° |
| 2026-05-05 10:56 | 41.64588 | 29.68254 | 35076 ft | 500 kts | 122° |
| 2026-05-05 10:57 | 41.60819 | 29.76063 | 35073 ft | 500 kts | 122° |
| 2026-05-05 10:57 | 41.57048 | 29.83859 | 35072 ft | 500 kts | 122° |
| 2026-05-05 10:58 | 41.53265 | 29.91661 | 35068 ft | 501 kts | 122° |
| 2026-05-05 10:58 | 41.49472 | 29.99463 | 35073 ft | 501 kts | 122° |
| 2026-05-05 10:59 | 41.45671 | 30.07258 | 35072 ft | 501 kts | 122° |
| 2026-05-05 10:59 | 41.41859 | 30.15058 | 35060 ft | 504 kts | 122° |
| 2026-05-05 11:00 | 41.38030 | 30.22875 | 35063 ft | 504 kts | 122° |
| 2026-05-05 11:00 | 41.34196 | 30.30681 | 35072 ft | 504 kts | 122° |
| 2026-05-05 11:01 | 41.30346 | 30.38499 | 35068 ft | 506 kts | 122° |
| 2026-05-05 11:01 | 41.26478 | 30.46334 | 35059 ft | 507 kts | 122° |
| 2026-05-05 11:02 | 41.22607 | 30.54155 | 35059 ft | 507 kts | 122° |
| 2026-05-05 11:02 | 41.18745 | 30.61937 | 35055 ft | 508 kts | 122° |
| 2026-05-05 11:03 | 41.14848 | 30.69772 | 35060 ft | 509 kts | 122° |
| 2026-05-05 11:03 | 41.10935 | 30.77615 | 35057 ft | 510 kts | 122° |
| 2026-05-05 11:04 | 41.07018 | 30.85448 | 35058 ft | 510 kts | 122° |
| 2026-05-05 11:04 | 41.03094 | 30.93277 | 35058 ft | 510 kts | 122° |
| 2026-05-05 11:05 | 40.99165 | 31.01097 | 35059 ft | 510 kts | 122° |
| 2026-05-05 11:05 | 40.95279 | 31.08935 | 35052 ft | 510 kts | 121° |
| 2026-05-05 11:06 | 40.91396 | 31.16805 | 35057 ft | 512 kts | 121° |
| 2026-05-05 11:06 | 40.87496 | 31.24674 | 35055 ft | 512 kts | 121° |
| 2026-05-05 11:07 | 40.83589 | 31.32523 | 35054 ft | 512 kts | 121° |
| 2026-05-05 11:07 | 40.79672 | 31.40367 | 35050 ft | 512 kts | 121° |
| 2026-05-05 11:08 | 40.75750 | 31.48202 | 35041 ft | 512 kts | 121° |
| 2026-05-05 11:08 | 40.71825 | 31.56025 | 35033 ft | 511 kts | 121° |
| 2026-05-05 11:09 | 40.67918 | 31.63794 | 35032 ft | 511 kts | 121° |
| 2026-05-05 11:09 | 40.63986 | 31.71594 | 35020 ft | 511 kts | 121° |
| 2026-05-05 11:10 | 40.60046 | 31.79389 | 35014 ft | 511 kts | 121° |
| 2026-05-05 11:10 | 40.56825 | 31.87651 | 35005 ft | 506 kts | 109° |
| 2026-05-05 11:11 | 40.54225 | 31.96231 | 34993 ft | 505 kts | 108° |
| 2026-05-05 11:11 | 40.51710 | 32.04844 | 35000 ft | 505 kts | 108° |
| 2026-05-05 11:12 | 40.49185 | 32.13455 | 34985 ft | 506 kts | 108° |
| 2026-05-05 11:12 | 40.46640 | 32.22069 | 34977 ft | 505 kts | 107° |
| 2026-05-05 11:13 | 40.44380 | 32.30792 | 34976 ft | 504 kts | 104° |
| 2026-05-05 11:13 | 40.42255 | 32.39563 | 34967 ft | 505 kts | 104° |
| 2026-05-05 11:14 | 40.40081 | 32.48328 | 34962 ft | 505 kts | 105° |
| 2026-05-05 11:14 | 40.37860 | 32.57085 | 34955 ft | 506 kts | 105° |
| 2026-05-05 11:15 | 40.35619 | 32.65827 | 34957 ft | 506 kts | 105° |
| 2026-05-05 11:15 | 40.33368 | 32.74579 | 34955 ft | 507 kts | 105° |
| 2026-05-05 11:16 | 40.31127 | 32.83272 | 34962 ft | 507 kts | 105° |
| 2026-05-05 11:16 | 40.28865 | 32.92019 | 34966 ft | 507 kts | 106° |
| 2026-05-05 11:17 | 40.26593 | 33.00768 | 34966 ft | 508 kts | 106° |
| 2026-05-05 11:17 | 40.24412 | 33.09549 | 34960 ft | 505 kts | 100° |
| 2026-05-05 11:18 | 40.23407 | 33.17104 | 34981 ft | 501 kts | 95° |
| 2026-05-05 11:18 | 40.22490 | 33.26085 | 34963 ft | 502 kts | 94° |
| 2026-05-05 11:19 | 40.21618 | 33.35141 | 34954 ft | 502 kts | 94° |
| 2026-05-05 11:19 | 40.20729 | 33.44192 | 34952 ft | 502 kts | 95° |
| 2026-05-05 11:20 | 40.19818 | 33.53244 | 34964 ft | 502 kts | 95° |
| 2026-05-05 11:20 | 40.18895 | 33.62301 | 34955 ft | 503 kts | 95° |
| 2026-05-05 11:21 | 40.17964 | 33.71368 | 34954 ft | 503 kts | 95° |
| 2026-05-05 11:21 | 40.17027 | 33.80422 | 34960 ft | 503 kts | 96° |
| 2026-05-05 11:22 | 40.16010 | 33.89465 | 34959 ft | 504 kts | 98° |
| 2026-05-05 11:22 | 40.14727 | 33.98475 | 34961 ft | 504 kts | 98° |
| 2026-05-05 11:23 | 40.13658 | 34.07510 | 34961 ft | 503 kts | 96° |
| 2026-05-05 11:23 | 40.12720 | 34.16567 | 34959 ft | 503 kts | 95° |
| 2026-05-05 11:24 | 40.11764 | 34.25626 | 34965 ft | 503 kts | 96° |
| 2026-05-05 11:24 | 40.10775 | 34.34675 | 34963 ft | 504 kts | 96° |
| 2026-05-05 11:25 | 40.09768 | 34.43731 | 34965 ft | 503 kts | 97° |
| 2026-05-05 11:25 | 40.08755 | 34.52766 | 34976 ft | 503 kts | 97° |
| 2026-05-05 11:26 | 40.07735 | 34.61802 | 34962 ft | 503 kts | 97° |
| 2026-05-05 11:26 | 40.06715 | 34.70774 | 34963 ft | 503 kts | 97° |
| 2026-05-05 11:27 | 40.05683 | 34.79791 | 34960 ft | 503 kts | 97° |
| 2026-05-05 11:27 | 40.04644 | 34.88819 | 34958 ft | 503 kts | 98° |
| 2026-05-05 11:28 | 40.03599 | 34.97829 | 34951 ft | 502 kts | 98° |
| 2026-05-05 11:28 | 40.02546 | 35.06835 | 34950 ft | 502 kts | 98° |
| 2026-05-05 11:29 | 40.01488 | 35.15835 | 34951 ft | 502 kts | 98° |
| 2026-05-05 11:29 | 40.00422 | 35.24837 | 34952 ft | 502 kts | 99° |
| 2026-05-05 11:30 | 39.99667 | 35.33870 | 34948 ft | 502 kts | 89° |
| 2026-05-05 11:30 | 40.00752 | 35.42804 | 34956 ft | 499 kts | 74° |
| 2026-05-05 11:31 | 40.02796 | 35.51443 | 34948 ft | 498 kts | 72° |
| 2026-05-05 11:31 | 40.04961 | 35.60031 | 34947 ft | 498 kts | 71° |
| 2026-05-05 11:32 | 40.07113 | 35.68632 | 34945 ft | 498 kts | 72° |
| 2026-05-05 11:32 | 40.09241 | 35.77275 | 34950 ft | 502 kts | 72° |
| 2026-05-05 11:33 | 40.11363 | 35.85969 | 34952 ft | 503 kts | 73° |
| 2026-05-05 11:33 | 40.13481 | 35.94681 | 34951 ft | 503 kts | 72° |
| 2026-05-05 11:34 | 40.15595 | 36.03402 | 34948 ft | 503 kts | 73° |
| 2026-05-05 11:34 | 40.17689 | 36.12071 | 34950 ft | 503 kts | 73° |
| 2026-05-05 11:35 | 40.19791 | 36.20808 | 34945 ft | 504 kts | 73° |
| 2026-05-05 11:35 | 40.21889 | 36.29557 | 34938 ft | 503 kts | 73° |
| 2026-05-05 11:36 | 40.23979 | 36.38311 | 34938 ft | 505 kts | 74° |
| 2026-05-05 11:36 | 40.26071 | 36.47105 | 34938 ft | 506 kts | 74° |
| 2026-05-05 11:37 | 40.28157 | 36.55904 | 34943 ft | 506 kts | 74° |
| 2026-05-05 11:37 | 40.30236 | 36.64708 | 34976 ft | 506 kts | 74° |
| 2026-05-05 11:38 | 40.32307 | 36.73513 | 34976 ft | 506 kts | 74° |
| 2026-05-05 11:38 | 40.34374 | 36.82334 | 34979 ft | 506 kts | 74° |
| 2026-05-05 11:39 | 40.36430 | 36.91145 | 34979 ft | 506 kts | 74° |
| 2026-05-05 11:39 | 40.38486 | 36.99988 | 34982 ft | 508 kts | 75° |
| 2026-05-05 11:40 | 40.40542 | 37.08869 | 34986 ft | 509 kts | 75° |
| 2026-05-05 11:40 | 40.42597 | 37.17775 | 34983 ft | 509 kts | 75° |
| 2026-05-05 11:41 | 40.44641 | 37.26669 | 34988 ft | 509 kts | 75° |
| 2026-05-05 11:41 | 40.46681 | 37.35581 | 34983 ft | 510 kts | 75° |
| 2026-05-05 11:42 | 40.48715 | 37.44505 | 34983 ft | 510 kts | 75° |
| 2026-05-05 11:42 | 40.50740 | 37.53425 | 34982 ft | 510 kts | 75° |
| 2026-05-05 11:43 | 40.52764 | 37.62372 | 34984 ft | 511 kts | 76° |
| 2026-05-05 11:43 | 40.54784 | 37.71341 | 34983 ft | 512 kts | 76° |
| 2026-05-05 11:44 | 40.56788 | 37.80269 | 34981 ft | 512 kts | 76° |
| 2026-05-05 11:44 | 40.58795 | 37.89251 | 34982 ft | 512 kts | 76° |
| 2026-05-05 11:45 | 40.60796 | 37.98245 | 34974 ft | 512 kts | 76° |
| 2026-05-05 11:45 | 40.62789 | 38.07240 | 34976 ft | 512 kts | 76° |
| 2026-05-05 11:46 | 40.64776 | 38.16244 | 34985 ft | 512 kts | 76° |
| 2026-05-05 11:46 | 40.66756 | 38.25251 | 34985 ft | 513 kts | 76° |
| 2026-05-05 11:47 | 40.68738 | 38.34312 | 34985 ft | 515 kts | 76° |
| 2026-05-05 11:47 | 40.70718 | 38.43391 | 34991 ft | 515 kts | 77° |
| 2026-05-05 11:48 | 40.73672 | 38.57008 | 34998 ft | 515 kts | 77° |
| 2026-05-05 11:48 | 40.75634 | 38.66103 | 35003 ft | 515 kts | 77° |
| 2026-05-05 11:49 | 40.77588 | 38.75200 | 34997 ft | 515 kts | 77° |
| 2026-05-05 11:49 | 40.79531 | 38.84286 | 34999 ft | 515 kts | 77° |
| 2026-05-05 11:50 | 40.81470 | 38.93388 | 35004 ft | 515 kts | 77° |
| 2026-05-05 11:50 | 40.83400 | 39.02495 | 34994 ft | 515 kts | 77° |
| 2026-05-05 11:51 | 40.85321 | 39.11593 | 34999 ft | 514 kts | 77° |
| 2026-05-05 11:51 | 40.87232 | 39.20687 | 34997 ft | 514 kts | 77° |
| 2026-05-05 11:52 | 40.89139 | 39.29797 | 34995 ft | 514 kts | 77° |
| 2026-05-05 11:52 | 40.91038 | 39.38898 | 34991 ft | 513 kts | 77° |
| 2026-05-05 11:53 | 40.92927 | 39.47997 | 34981 ft | 513 kts | 77° |
| 2026-05-05 11:53 | 40.94807 | 39.57100 | 34988 ft | 513 kts | 78° |
| 2026-05-05 11:54 | 40.96682 | 39.66218 | 34987 ft | 514 kts | 78° |
| 2026-05-05 11:54 | 40.98540 | 39.75287 | 34986 ft | 514 kts | 78° |
| 2026-05-05 11:55 | 41.00348 | 39.84499 | 34998 ft | 513 kts | 81° |
| 2026-05-05 11:55 | 41.01691 | 39.93682 | 34993 ft | 512 kts | 83° |
| 2026-05-05 11:56 | 41.02958 | 40.02961 | 34987 ft | 512 kts | 83° |
| 2026-05-05 11:56 | 41.04284 | 40.12238 | 34990 ft | 512 kts | 82° |
| 2026-05-05 11:57 | 41.05643 | 40.21500 | 35001 ft | 513 kts | 82° |
| 2026-05-05 11:57 | 41.07004 | 40.30766 | 34999 ft | 513 kts | 82° |
| 2026-05-05 11:58 | 41.08357 | 40.40044 | 34998 ft | 513 kts | 82° |
| 2026-05-05 11:58 | 41.09700 | 40.49327 | 34996 ft | 513 kts | 82° |
| 2026-05-05 11:59 | 41.11034 | 40.58605 | 34996 ft | 512 kts | 82° |
| 2026-05-05 11:59 | 41.12361 | 40.67892 | 34995 ft | 512 kts | 82° |
| 2026-05-05 12:00 | 41.13679 | 40.77180 | 34993 ft | 513 kts | 83° |
| 2026-05-05 12:00 | 41.14992 | 40.86487 | 34994 ft | 513 kts | 83° |
| 2026-05-05 12:01 | 41.16298 | 40.95781 | 34992 ft | 512 kts | 83° |
| 2026-05-05 12:01 | 41.17593 | 41.05072 | 34995 ft | 512 kts | 83° |
| 2026-05-05 12:02 | 41.18881 | 41.14362 | 34992 ft | 512 kts | 83° |
| 2026-05-05 12:02 | 41.20162 | 41.23649 | 34980 ft | 511 kts | 83° |
| 2026-05-05 12:03 | 41.21433 | 41.32934 | 34980 ft | 511 kts | 83° |
| 2026-05-05 12:03 | 41.22694 | 41.42213 | 34963 ft | 510 kts | 83° |
| 2026-05-05 12:04 | 41.23950 | 41.51502 | 34967 ft | 511 kts | 83° |
| 2026-05-05 12:04 | 41.25196 | 41.60786 | 34973 ft | 511 kts | 83° |
| 2026-05-05 12:05 | 41.26227 | 41.68521 | 34963 ft | 512 kts | 83° |
| 2026-05-05 12:05 | 41.27464 | 41.77835 | 34972 ft | 511 kts | 83° |
| 2026-05-05 12:06 | 41.28893 | 41.88659 | 34948 ft | 512 kts | 84° |
| 2026-05-05 12:06 | 41.29918 | 41.96477 | 34952 ft | 512 kts | 83° |
| 2026-05-05 12:07 | 41.31133 | 42.05810 | 34952 ft | 512 kts | 84° |
| 2026-05-05 12:07 | 41.32339 | 42.15141 | 34938 ft | 512 kts | 84° |
| 2026-05-05 12:08 | 41.33531 | 42.24423 | 34933 ft | 512 kts | 84° |
| 2026-05-05 12:08 | 41.34725 | 42.33766 | 34919 ft | 512 kts | 84° |
| 2026-05-05 12:09 | 41.35908 | 42.43096 | 34922 ft | 512 kts | 84° |
| 2026-05-05 12:09 | 41.37083 | 42.52436 | 34917 ft | 511 kts | 84° |
| 2026-05-05 12:10 | 41.38251 | 42.61780 | 34916 ft | 511 kts | 84° |
| 2026-05-05 12:10 | 41.39409 | 42.71108 | 34916 ft | 511 kts | 84° |
| 2026-05-05 12:11 | 41.40562 | 42.80461 | 34913 ft | 511 kts | 84° |
| 2026-05-05 12:11 | 41.41707 | 42.89801 | 34913 ft | 511 kts | 84° |
| 2026-05-05 12:12 | 41.42557 | 42.99163 | 34909 ft | 506 kts | 94° |
| 2026-05-05 12:12 | 41.42472 | 43.08531 | 34899 ft | 507 kts | 96° |
| 2026-05-05 12:13 | 41.42226 | 43.17930 | 34890 ft | 508 kts | 96° |
| 2026-05-05 12:13 | 41.41957 | 43.27342 | 34901 ft | 509 kts | 96° |
| 2026-05-05 12:14 | 41.41697 | 43.36760 | 34902 ft | 509 kts | 96° |
| 2026-05-05 12:14 | 41.41437 | 43.46188 | 34898 ft | 509 kts | 96° |
| 2026-05-05 12:15 | 41.41168 | 43.55614 | 34901 ft | 511 kts | 97° |
| 2026-05-05 12:15 | 41.40891 | 43.65023 | 34914 ft | 512 kts | 97° |
| 2026-05-05 12:16 | 41.40607 | 43.74505 | 34913 ft | 512 kts | 97° |
| 2026-05-05 12:16 | 41.40316 | 43.83973 | 34923 ft | 511 kts | 97° |
| 2026-05-05 12:17 | 41.40015 | 43.93438 | 34910 ft | 511 kts | 98° |
| 2026-05-05 12:17 | 41.39704 | 44.02934 | 34924 ft | 515 kts | 98° |
| 2026-05-05 12:18 | 41.39385 | 44.12469 | 34929 ft | 515 kts | 98° |
| 2026-05-05 12:18 | 41.39060 | 44.21995 | 34934 ft | 515 kts | 98° |
| 2026-05-05 12:19 | 41.38725 | 44.31537 | 34919 ft | 517 kts | 98° |
| 2026-05-05 12:19 | 41.38380 | 44.41104 | 34916 ft | 517 kts | 98° |
| 2026-05-05 12:20 | 41.38030 | 44.50670 | 34913 ft | 517 kts | 98° |
| 2026-05-05 12:20 | 41.37672 | 44.60235 | 34929 ft | 518 kts | 98° |
| 2026-05-05 12:21 | 41.37305 | 44.69808 | 34918 ft | 517 kts | 98° |
| 2026-05-05 12:21 | 41.36930 | 44.79369 | 34878 ft | 517 kts | 99° |
| 2026-05-05 12:22 | 41.36546 | 44.88960 | 34900 ft | 520 kts | 99° |
| 2026-05-05 12:22 | 41.36151 | 44.98582 | 34897 ft | 521 kts | 99° |
| 2026-05-05 12:23 | 41.35496 | 45.08142 | 34899 ft | 513 kts | 109° |
| 2026-05-05 12:23 | 41.33528 | 45.17161 | 34893 ft | 506 kts | 115° |
| 2026-05-05 12:24 | 41.31261 | 45.26021 | 34893 ft | 507 kts | 117° |
| 2026-05-05 12:24 | 41.28941 | 45.34883 | 34894 ft | 507 kts | 117° |
| 2026-05-05 12:25 | 41.26633 | 45.43746 | 34889 ft | 508 kts | 117° |
| 2026-05-05 12:25 | 41.24329 | 45.52623 | 34879 ft | 508 kts | 117° |
| 2026-05-05 12:26 | 41.22015 | 45.61511 | 34886 ft | 509 kts | 117° |
| 2026-05-05 12:26 | 41.19699 | 45.70393 | 34889 ft | 509 kts | 117° |
| 2026-05-05 12:27 | 41.17377 | 45.79211 | 34888 ft | 509 kts | 117° |
| 2026-05-05 12:27 | 41.15029 | 45.88075 | 34900 ft | 510 kts | 118° |
| 2026-05-05 12:28 | 41.12671 | 45.96956 | 34884 ft | 511 kts | 118° |
| 2026-05-05 12:28 | 41.10308 | 46.05835 | 34884 ft | 511 kts | 118° |
| 2026-05-05 12:29 | 41.07939 | 46.14705 | 34891 ft | 511 kts | 118° |
| 2026-05-05 12:29 | 41.05557 | 46.23589 | 34902 ft | 512 kts | 118° |
| 2026-05-05 12:30 | 41.03170 | 46.32480 | 34902 ft | 512 kts | 118° |
| 2026-05-05 12:30 | 41.00794 | 46.41383 | 34905 ft | 513 kts | 118° |
| 2026-05-05 12:31 | 40.98407 | 46.50296 | 34896 ft | 515 kts | 118° |
| 2026-05-05 12:31 | 40.96007 | 46.59227 | 34908 ft | 515 kts | 118° |
| 2026-05-05 12:32 | 40.93604 | 46.68138 | 34908 ft | 514 kts | 118° |
| 2026-05-05 12:32 | 40.91354 | 46.77135 | 34901 ft | 522 kts | 111° |
| 2026-05-05 12:33 | 40.90866 | 46.86863 | 34916 ft | 542 kts | 89° |
| 2026-05-05 12:33 | 40.92367 | 46.96706 | 34911 ft | 548 kts | 82° |
| 2026-05-05 12:34 | 40.94232 | 47.06490 | 34913 ft | 549 kts | 81° |
| 2026-05-05 12:34 | 40.96100 | 47.16273 | 34917 ft | 548 kts | 81° |
| 2026-05-05 12:35 | 40.97916 | 47.26066 | 34913 ft | 548 kts | 82° |
| 2026-05-05 12:35 | 40.99702 | 47.35864 | 34905 ft | 548 kts | 82° |
| 2026-05-05 12:36 | 41.01473 | 47.45661 | 34902 ft | 547 kts | 82° |
| 2026-05-05 12:36 | 41.03235 | 47.55446 | 34899 ft | 546 kts | 82° |
| 2026-05-05 12:37 | 41.04990 | 47.65232 | 34894 ft | 546 kts | 82° |
| 2026-05-05 12:37 | 41.06724 | 47.74959 | 34884 ft | 545 kts | 82° |
| 2026-05-05 12:38 | 41.08463 | 47.84748 | 34904 ft | 546 kts | 82° |
| 2026-05-05 12:38 | 41.10308 | 47.94503 | 34894 ft | 549 kts | 76° |
| 2026-05-05 12:39 | 41.11808 | 47.99188 | 34890 ft | 555 kts | 65° |
| 2026-05-05 12:39 | 41.13853 | 48.03545 | 34901 ft | 556 kts | 58° |
| 2026-05-05 12:39 | 41.18321 | 48.11876 | 34915 ft | 553 kts | 56° |
| 2026-05-05 12:40 | 41.22894 | 48.20085 | 34909 ft | 553 kts | 56° |
| 2026-05-05 12:40 | 41.27448 | 48.28303 | 34913 ft | 551 kts | 56° |
| 2026-05-05 12:41 | 41.31960 | 48.36527 | 34922 ft | 550 kts | 56° |
| 2026-05-05 12:41 | 41.36460 | 48.44776 | 34928 ft | 550 kts | 56° |
| 2026-05-05 12:42 | 41.40952 | 48.53035 | 34934 ft | 552 kts | 56° |
| 2026-05-05 12:42 | 41.45480 | 48.61304 | 34937 ft | 553 kts | 56° |
| 2026-05-05 12:43 | 41.50088 | 48.69515 | 34932 ft | 552 kts | 55° |
| 2026-05-05 12:43 | 41.54661 | 48.77747 | 34941 ft | 552 kts | 57° |
| 2026-05-05 12:44 | 41.58950 | 48.86246 | 34940 ft | 551 kts | 59° |
| 2026-05-05 12:44 | 41.63130 | 48.94761 | 34940 ft | 552 kts | 59° |
| 2026-05-05 12:45 | 41.67370 | 49.03311 | 34945 ft | 552 kts | 59° |
| 2026-05-05 12:45 | 41.71629 | 49.11841 | 34948 ft | 552 kts | 59° |
| 2026-05-05 12:46 | 41.75897 | 49.20391 | 34944 ft | 553 kts | 59° |
| 2026-05-05 12:46 | 41.80172 | 49.28983 | 34939 ft | 554 kts | 59° |
| 2026-05-05 12:47 | 41.84557 | 49.37497 | 34940 ft | 555 kts | 56° |
| 2026-05-05 12:47 | 41.89170 | 49.45801 | 34933 ft | 555 kts | 55° |
| 2026-05-05 12:48 | 41.93782 | 49.54112 | 34945 ft | 555 kts | 56° |
| 2026-05-05 12:48 | 41.98348 | 49.62473 | 34945 ft | 555 kts | 56° |
| 2026-05-05 12:49 | 42.02889 | 49.70863 | 34936 ft | 555 kts | 56° |
| 2026-05-05 12:49 | 42.07427 | 49.79279 | 34932 ft | 555 kts | 56° |
| 2026-05-05 12:50 | 42.11960 | 49.87704 | 34925 ft | 555 kts | 56° |
| 2026-05-05 12:50 | 42.16480 | 49.96125 | 34933 ft | 554 kts | 56° |
| 2026-05-05 12:51 | 42.20993 | 50.04557 | 34929 ft | 554 kts | 56° |
| 2026-05-05 12:51 | 42.25498 | 50.12996 | 34925 ft | 554 kts | 56° |
| 2026-05-05 12:52 | 42.29996 | 50.21446 | 34928 ft | 554 kts | 57° |
| 2026-05-05 12:52 | 42.34480 | 50.29895 | 34926 ft | 553 kts | 57° |
| 2026-05-05 12:53 | 42.38961 | 50.38360 | 34928 ft | 553 kts | 57° |
| 2026-05-05 12:53 | 42.43401 | 50.46772 | 34911 ft | 553 kts | 57° |
| 2026-05-05 12:54 | 42.50385 | 50.59216 | 34915 ft | 553 kts | 53° |
| 2026-05-05 12:55 | 42.54376 | 50.66067 | 34920 ft | 552 kts | 54° |
| 2026-05-05 12:55 | 42.59100 | 50.74276 | 34920 ft | 552 kts | 54° |
| 2026-05-05 12:56 | 42.63792 | 50.82524 | 34914 ft | 552 kts | 54° |
| 2026-05-05 12:56 | 42.68471 | 50.90791 | 34911 ft | 552 kts | 54° |
| 2026-05-05 12:57 | 42.73141 | 50.99066 | 34908 ft | 552 kts | 54° |
| 2026-05-05 12:57 | 42.77807 | 51.07352 | 34905 ft | 551 kts | 54° |
| 2026-05-05 12:58 | 42.82465 | 51.15646 | 34906 ft | 551 kts | 54° |
| 2026-05-05 12:58 | 42.87115 | 51.23948 | 34936 ft | 551 kts | 54° |
| 2026-05-05 12:59 | 42.91761 | 51.32267 | 34905 ft | 552 kts | 54° |
| 2026-05-05 12:59 | 42.96416 | 51.40626 | 34893 ft | 553 kts | 55° |
| 2026-05-05 13:00 | 43.03352 | 51.53122 | 34885 ft | 553 kts | 55° |
| 2026-05-05 13:01 | 43.12611 | 51.69889 | 34892 ft | 552 kts | 55° |
| 2026-05-05 13:01 | 43.17229 | 51.78286 | 34885 ft | 552 kts | 55° |
| 2026-05-05 13:02 | 43.21840 | 51.86696 | 34886 ft | 552 kts | 55° |
| 2026-05-05 13:02 | 43.26439 | 51.95109 | 34885 ft | 551 kts | 55° |
| 2026-05-05 13:03 | 43.31035 | 52.03540 | 34880 ft | 551 kts | 55° |
| 2026-05-05 13:03 | 43.35618 | 52.11969 | 34881 ft | 551 kts | 55° |
| 2026-05-05 13:04 | 43.40194 | 52.20410 | 34885 ft | 550 kts | 55° |
| 2026-05-05 13:04 | 43.44763 | 52.28864 | 34877 ft | 550 kts | 55° |
| 2026-05-05 13:05 | 43.49319 | 52.37315 | 34877 ft | 549 kts | 55° |
| 2026-05-05 13:05 | 43.53866 | 52.45776 | 34871 ft | 549 kts | 55° |
| 2026-05-05 13:06 | 43.58406 | 52.54246 | 34863 ft | 549 kts | 55° |
| 2026-05-05 13:06 | 43.62936 | 52.62724 | 34865 ft | 548 kts | 55° |
| 2026-05-05 13:07 | 43.67450 | 52.71198 | 34880 ft | 548 kts | 56° |
| 2026-05-05 13:07 | 43.71953 | 52.79704 | 34855 ft | 549 kts | 56° |
| 2026-05-05 13:08 | 43.76453 | 52.88240 | 34860 ft | 549 kts | 56° |
| 2026-05-05 13:08 | 43.80950 | 52.96790 | 34847 ft | 549 kts | 56° |
| 2026-05-05 13:09 | 43.85439 | 53.05345 | 34848 ft | 549 kts | 56° |
| 2026-05-05 13:09 | 43.89905 | 53.13821 | 34846 ft | 548 kts | 54° |
| 2026-05-05 13:10 | 43.94752 | 53.21990 | 34845 ft | 548 kts | 51° |
| 2026-05-05 13:10 | 43.99709 | 53.30027 | 34843 ft | 548 kts | 51° |
| 2026-05-05 13:11 | 44.04610 | 53.38123 | 34843 ft | 547 kts | 52° |
| 2026-05-05 13:11 | 44.09453 | 53.46255 | 34842 ft | 546 kts | 52° |
| 2026-05-05 13:12 | 44.14283 | 53.54419 | 34838 ft | 546 kts | 52° |
| 2026-05-05 13:12 | 44.19105 | 53.62591 | 34840 ft | 546 kts | 52° |
| 2026-05-05 13:13 | 44.23923 | 53.70774 | 34834 ft | 546 kts | 52° |
| 2026-05-05 13:13 | 44.28732 | 53.78964 | 34834 ft | 546 kts | 52° |
| 2026-05-05 13:14 | 44.33538 | 53.87172 | 34855 ft | 546 kts | 52° |
| 2026-05-05 13:14 | 44.38341 | 53.95398 | 34832 ft | 547 kts | 52° |
| 2026-05-05 13:15 | 44.43143 | 54.03648 | 34830 ft | 547 kts | 52° |
| 2026-05-05 13:15 | 44.47944 | 54.11917 | 34826 ft | 547 kts | 52° |
| 2026-05-05 13:16 | 44.52726 | 54.20177 | 34826 ft | 546 kts | 52° |
| 2026-05-05 13:16 | 44.57510 | 54.28466 | 34820 ft | 546 kts | 52° |
| 2026-05-05 13:17 | 44.62278 | 54.36750 | 34818 ft | 545 kts | 52° |
| 2026-05-05 13:17 | 44.67028 | 54.45027 | 34818 ft | 545 kts | 52° |
| 2026-05-05 13:18 | 44.71778 | 54.53329 | 34809 ft | 544 kts | 52° |
| 2026-05-05 13:18 | 44.76510 | 54.61622 | 34816 ft | 542 kts | 52° |
| 2026-05-05 13:19 | 44.81221 | 54.69904 | 34812 ft | 542 kts | 52° |
| 2026-05-05 13:19 | 44.85898 | 54.78150 | 34814 ft | 542 kts | 52° |
| 2026-05-05 13:20 | 44.90595 | 54.86455 | 34811 ft | 541 kts | 52° |
| 2026-05-05 13:20 | 44.95307 | 54.94811 | 34837 ft | 541 kts | 52° |
| 2026-05-05 13:21 | 44.99987 | 55.03133 | 34799 ft | 542 kts | 53° |
| 2026-05-05 13:21 | 45.04637 | 55.11428 | 34807 ft | 542 kts | 53° |
| 2026-05-05 13:22 | 45.08820 | 55.20230 | 34808 ft | 537 kts | 67° |
| 2026-05-05 13:22 | 45.11740 | 55.29948 | 34808 ft | 537 kts | 71° |
| 2026-05-05 13:23 | 45.14436 | 55.39813 | 34811 ft | 537 kts | 72° |
| 2026-05-05 13:23 | 45.17103 | 55.49699 | 34803 ft | 537 kts | 72° |
| 2026-05-05 13:24 | 45.19781 | 55.59582 | 34803 ft | 537 kts | 71° |
| 2026-05-05 13:24 | 45.22460 | 55.69457 | 34810 ft | 537 kts | 71° |
| 2026-05-05 13:25 | 45.25142 | 55.79370 | 34814 ft | 538 kts | 71° |
| 2026-05-05 13:25 | 45.27815 | 55.89296 | 34813 ft | 538 kts | 71° |
| 2026-05-05 13:26 | 45.30480 | 55.99232 | 34811 ft | 538 kts | 71° |
| 2026-05-05 13:26 | 45.33130 | 56.09158 | 34815 ft | 537 kts | 71° |
| 2026-05-05 13:27 | 45.35771 | 56.19090 | 34812 ft | 537 kts | 71° |
| 2026-05-05 13:27 | 45.38404 | 56.29036 | 34810 ft | 537 kts | 71° |
| 2026-05-05 13:28 | 45.41029 | 56.38993 | 34808 ft | 537 kts | 71° |
| 2026-05-05 13:28 | 45.43643 | 56.48948 | 34807 ft | 537 kts | 71° |
| 2026-05-05 13:29 | 45.46245 | 56.58899 | 34807 ft | 537 kts | 71° |
| 2026-05-05 13:29 | 45.48839 | 56.68865 | 34807 ft | 537 kts | 71° |
| 2026-05-05 13:30 | 45.51428 | 56.78853 | 34807 ft | 537 kts | 71° |
| 2026-05-05 13:30 | 45.54006 | 56.88840 | 34806 ft | 537 kts | 71° |
| 2026-05-05 13:31 | 45.56578 | 56.98846 | 34807 ft | 537 kts | 72° |
| 2026-05-05 13:31 | 45.59137 | 57.08846 | 34817 ft | 536 kts | 71° |
| 2026-05-05 13:32 | 45.61680 | 57.18827 | 34804 ft | 535 kts | 71° |
| 2026-05-05 13:32 | 45.64214 | 57.28812 | 34804 ft | 535 kts | 72° |
| 2026-05-05 13:33 | 45.66740 | 57.38814 | 34815 ft | 535 kts | 72° |
| 2026-05-05 13:33 | 45.69249 | 57.48794 | 34822 ft | 532 kts | 71° |
| 2026-05-05 13:34 | 45.71722 | 57.58668 | 34823 ft | 530 kts | 71° |
| 2026-05-05 13:34 | 45.74200 | 57.68608 | 34822 ft | 531 kts | 72° |
| 2026-05-05 13:35 | 45.76688 | 57.78629 | 34834 ft | 531 kts | 72° |
| 2026-05-05 13:35 | 45.79138 | 57.88548 | 34834 ft | 532 kts | 72° |
| 2026-05-05 13:36 | 45.81614 | 57.98615 | 34836 ft | 532 kts | 72° |
| 2026-05-05 13:36 | 45.84064 | 58.08618 | 34848 ft | 532 kts | 72° |
| 2026-05-05 13:37 | 45.86493 | 58.18580 | 34855 ft | 533 kts | 72° |
| 2026-05-05 13:37 | 45.88928 | 58.28614 | 34837 ft | 533 kts | 72° |
| 2026-05-05 13:38 | 45.91359 | 58.38672 | 34860 ft | 533 kts | 72° |
| 2026-05-05 13:38 | 45.93780 | 58.48737 | 34858 ft | 533 kts | 72° |
| 2026-05-05 13:39 | 45.96189 | 58.58791 | 34864 ft | 532 kts | 72° |
| 2026-05-05 13:39 | 45.98585 | 58.68841 | 34870 ft | 531 kts | 72° |
| 2026-05-05 13:40 | 46.00972 | 58.78902 | 34878 ft | 531 kts | 72° |
| 2026-05-05 13:40 | 46.02965 | 58.87336 | 34879 ft | 532 kts | 72° |
| 2026-05-05 13:41 | 46.05338 | 58.97419 | 34875 ft | 532 kts | 72° |
| 2026-05-05 13:41 | 46.07704 | 59.07518 | 34880 ft | 532 kts | 72° |
| 2026-05-05 13:42 | 46.10060 | 59.17623 | 34884 ft | 532 kts | 72° |
| 2026-05-05 13:42 | 46.12394 | 59.27678 | 34886 ft | 532 kts | 72° |
| 2026-05-05 13:43 | 46.14731 | 59.37797 | 34888 ft | 532 kts | 72° |
| 2026-05-05 13:43 | 46.17061 | 59.47928 | 34893 ft | 532 kts | 72° |
| 2026-05-05 13:44 | 46.19377 | 59.58051 | 34895 ft | 532 kts | 72° |
| 2026-05-05 13:44 | 46.21689 | 59.68198 | 34894 ft | 532 kts | 72° |
| 2026-05-05 13:45 | 46.23991 | 59.78363 | 34895 ft | 532 kts | 72° |
| 2026-05-05 13:45 | 46.26270 | 59.88540 | 34893 ft | 532 kts | 72° |
| 2026-05-05 13:46 | 46.28538 | 59.98722 | 34895 ft | 532 kts | 72° |
| 2026-05-05 13:46 | 46.30799 | 60.08914 | 34897 ft | 532 kts | 72° |
| 2026-05-05 13:47 | 46.33050 | 60.19104 | 34894 ft | 532 kts | 72° |
| 2026-05-05 13:47 | 46.35294 | 60.29310 | 34894 ft | 532 kts | 72° |
| 2026-05-05 13:48 | 46.37526 | 60.39507 | 34897 ft | 532 kts | 72° |
| 2026-05-05 13:48 | 46.39752 | 60.49733 | 34900 ft | 532 kts | 72° |
| 2026-05-05 13:49 | 46.41966 | 60.59951 | 34895 ft | 532 kts | 72° |
| 2026-05-05 13:49 | 46.44172 | 60.70184 | 34896 ft | 532 kts | 72° |
| 2026-05-05 13:50 | 46.46373 | 60.80441 | 34895 ft | 532 kts | 72° |
| 2026-05-05 13:50 | 46.48561 | 60.90690 | 34894 ft | 532 kts | 72° |
| 2026-05-05 13:51 | 46.50742 | 61.00960 | 34893 ft | 532 kts | 72° |
| 2026-05-05 13:51 | 46.52913 | 61.11235 | 34892 ft | 532 kts | 72° |
| 2026-05-05 13:52 | 46.55058 | 61.21430 | 34893 ft | 532 kts | 72° |
| 2026-05-05 13:52 | 46.57209 | 61.31714 | 34899 ft | 532 kts | 73° |
| 2026-05-05 13:53 | 46.59368 | 61.42082 | 34900 ft | 532 kts | 73° |
| 2026-05-05 13:53 | 46.61482 | 61.52293 | 34901 ft | 531 kts | 73° |
| 2026-05-05 13:54 | 46.63605 | 61.62595 | 34899 ft | 531 kts | 73° |
| 2026-05-05 13:54 | 46.65716 | 61.72893 | 34897 ft | 531 kts | 73° |
| 2026-05-05 13:55 | 46.67818 | 61.83201 | 34900 ft | 530 kts | 73° |
| 2026-05-05 13:55 | 46.69904 | 61.93483 | 34901 ft | 529 kts | 73° |
| 2026-05-05 13:56 | 46.71982 | 62.03779 | 34903 ft | 529 kts | 73° |
| 2026-05-05 13:56 | 46.74050 | 62.14083 | 34912 ft | 530 kts | 73° |
| 2026-05-05 13:57 | 46.76104 | 62.24367 | 34913 ft | 527 kts | 73° |
| 2026-05-05 13:57 | 46.78140 | 62.34616 | 34914 ft | 526 kts | 74° |
| 2026-05-05 13:58 | 46.80167 | 62.44873 | 34913 ft | 526 kts | 74° |
| 2026-05-05 13:58 | 46.82186 | 62.55143 | 34914 ft | 526 kts | 74° |
| 2026-05-05 13:59 | 46.85196 | 62.70530 | 34911 ft | 525 kts | 74° |
| 2026-05-05 14:00 | 46.87844 | 62.84201 | 34922 ft | 525 kts | 74° |
| 2026-05-05 14:00 | 46.90156 | 62.96211 | 34914 ft | 525 kts | 74° |
| 2026-05-05 14:01 | 46.92122 | 63.06479 | 34914 ft | 524 kts | 74° |
| 2026-05-05 14:01 | 46.94075 | 63.16728 | 34915 ft | 523 kts | 74° |
| 2026-05-05 14:02 | 46.96021 | 63.27002 | 34922 ft | 523 kts | 74° |
| 2026-05-05 14:02 | 46.97955 | 63.37265 | 34922 ft | 522 kts | 75° |
| 2026-05-05 14:03 | 46.99874 | 63.47504 | 34921 ft | 521 kts | 75° |
| 2026-05-05 14:03 | 47.01771 | 63.57684 | 34919 ft | 521 kts | 75° |
| 2026-05-05 14:04 | 47.03672 | 63.67942 | 34929 ft | 521 kts | 75° |
| 2026-05-05 14:04 | 47.05559 | 63.78178 | 34952 ft | 520 kts | 75° |
| 2026-05-05 14:05 | 47.06498 | 63.83296 | 35186 ft | 520 kts | 75° |
| 2026-05-05 14:05 | 47.07434 | 63.88405 | 35532 ft | 518 kts | 76° |
| 2026-05-05 14:05 | 47.08375 | 63.93565 | 35834 ft | 517 kts | 76° |
| 2026-05-05 14:05 | 47.09291 | 63.98593 | 36087 ft | 516 kts | 76° |
| 2026-05-05 14:06 | 47.10214 | 64.03677 | 36355 ft | 516 kts | 76° |
| 2026-05-05 14:06 | 47.11137 | 64.08768 | 36613 ft | 516 kts | 76° |
| 2026-05-05 14:06 | 47.12056 | 64.13852 | 36825 ft | 515 kts | 76° |
| 2026-05-05 14:06 | 47.12974 | 64.18948 | 36922 ft | 517 kts | 76° |
| 2026-05-05 14:07 | 47.14801 | 64.29141 | 36925 ft | 515 kts | 76° |
| 2026-05-05 14:07 | 47.16616 | 64.39317 | 36925 ft | 515 kts | 76° |
| 2026-05-05 14:08 | 47.18422 | 64.49508 | 36927 ft | 515 kts | 76° |
| 2026-05-05 14:08 | 47.20221 | 64.59689 | 36930 ft | 514 kts | 76° |
| 2026-05-05 14:09 | 47.22014 | 64.69882 | 36930 ft | 514 kts | 76° |
| 2026-05-05 14:09 | 47.23796 | 64.80076 | 36933 ft | 514 kts | 76° |
| 2026-05-05 14:10 | 47.25567 | 64.90269 | 36935 ft | 513 kts | 76° |
| 2026-05-05 14:10 | 47.27325 | 65.00440 | 36941 ft | 512 kts | 77° |
| 2026-05-05 14:11 | 47.29074 | 65.10615 | 36942 ft | 512 kts | 77° |
| 2026-05-05 14:11 | 47.30818 | 65.20789 | 36947 ft | 512 kts | 77° |
| 2026-05-05 14:12 | 47.32552 | 65.30968 | 36952 ft | 512 kts | 77° |
| 2026-05-05 14:12 | 47.34276 | 65.41159 | 36952 ft | 512 kts | 77° |
| 2026-05-05 14:13 | 47.35990 | 65.51363 | 36955 ft | 512 kts | 77° |
| 2026-05-05 14:13 | 47.37693 | 65.61568 | 36958 ft | 512 kts | 77° |
| 2026-05-05 14:14 | 47.39388 | 65.71792 | 36963 ft | 513 kts | 77° |
| 2026-05-05 14:14 | 47.41074 | 65.82008 | 36963 ft | 513 kts | 77° |
| 2026-05-05 14:15 | 47.42772 | 65.92171 | 36972 ft | 513 kts | 77° |
| 2026-05-05 14:15 | 47.44526 | 66.02379 | 36969 ft | 513 kts | 77° |
| 2026-05-05 14:16 | 47.46272 | 66.12592 | 36974 ft | 512 kts | 77° |
| 2026-05-05 14:16 | 47.48000 | 66.22807 | 36977 ft | 512 kts | 77° |
| 2026-05-05 14:17 | 47.49713 | 66.33021 | 36985 ft | 512 kts | 77° |
| 2026-05-05 14:17 | 47.51418 | 66.43253 | 36987 ft | 512 kts | 77° |
| 2026-05-05 14:18 | 47.53113 | 66.53488 | 36988 ft | 512 kts | 77° |
| 2026-05-05 14:18 | 47.54801 | 66.63732 | 36988 ft | 512 kts | 77° |
| 2026-05-05 14:19 | 47.56479 | 66.73980 | 36990 ft | 512 kts | 77° |
| 2026-05-05 14:19 | 47.58108 | 66.84256 | 36984 ft | 512 kts | 78° |
| 2026-05-05 14:20 | 47.59695 | 66.94544 | 36985 ft | 512 kts | 78° |
| 2026-05-05 14:20 | 47.61277 | 67.04827 | 36985 ft | 512 kts | 78° |
| 2026-05-05 14:21 | 47.62861 | 67.15128 | 36988 ft | 512 kts | 78° |
| 2026-05-05 14:21 | 47.64436 | 67.25420 | 36987 ft | 512 kts | 78° |
| 2026-05-05 14:22 | 47.66002 | 67.35717 | 36988 ft | 512 kts | 79° |
| 2026-05-05 14:22 | 47.67557 | 67.46021 | 36987 ft | 512 kts | 79° |
| 2026-05-05 14:23 | 47.69103 | 67.56327 | 37017 ft | 512 kts | 79° |
| 2026-05-05 14:23 | 47.70639 | 67.66635 | 37020 ft | 512 kts | 79° |
| 2026-05-05 14:24 | 47.72165 | 67.76946 | 37020 ft | 511 kts | 79° |
| 2026-05-05 14:24 | 47.73356 | 67.87346 | 37020 ft | 510 kts | 84° |
| 2026-05-05 14:25 | 47.74256 | 67.97807 | 37012 ft | 511 kts | 84° |
| 2026-05-05 14:25 | 47.75184 | 68.08264 | 37004 ft | 511 kts | 84° |
| 2026-05-05 14:26 | 47.75996 | 68.16949 | 37004 ft | 511 kts | 84° |
| 2026-05-05 14:26 | 47.76987 | 68.27407 | 36998 ft | 511 kts | 84° |
| 2026-05-05 14:27 | 47.78130 | 68.39566 | 36999 ft | 511 kts | 84° |
| 2026-05-05 14:27 | 47.78943 | 68.48324 | 36998 ft | 511 kts | 84° |
| 2026-05-05 14:28 | 47.79903 | 68.58783 | 37002 ft | 510 kts | 84° |
| 2026-05-05 14:28 | 47.80854 | 68.69245 | 37004 ft | 510 kts | 84° |
| 2026-05-05 14:29 | 47.81759 | 68.79712 | 37007 ft | 510 kts | 87° |
| 2026-05-05 14:29 | 47.81834 | 68.90221 | 37004 ft | 508 kts | 93° |
| 2026-05-05 14:30 | 47.81660 | 69.00734 | 37012 ft | 508 kts | 94° |
| 2026-05-05 14:30 | 47.81441 | 69.11249 | 37000 ft | 509 kts | 94° |
| 2026-05-05 14:31 | 47.81224 | 69.21694 | 37013 ft | 508 kts | 94° |
| 2026-05-05 14:31 | 47.81006 | 69.32206 | 37015 ft | 508 kts | 94° |
| 2026-05-05 14:32 | 47.80782 | 69.42707 | 37018 ft | 508 kts | 94° |
| 2026-05-05 14:32 | 47.80548 | 69.53196 | 37021 ft | 508 kts | 94° |
| 2026-05-05 14:33 | 47.80304 | 69.63691 | 37021 ft | 508 kts | 94° |
| 2026-05-05 14:33 | 47.80050 | 69.74181 | 37021 ft | 508 kts | 94° |
| 2026-05-05 14:34 | 47.79787 | 69.84668 | 37026 ft | 507 kts | 94° |
| 2026-05-05 14:34 | 47.79514 | 69.95151 | 37026 ft | 507 kts | 94° |
| 2026-05-05 14:35 | 47.79232 | 70.05635 | 37029 ft | 507 kts | 94° |
| 2026-05-05 14:35 | 47.78941 | 70.16106 | 37029 ft | 507 kts | 94° |
| 2026-05-05 14:36 | 47.78639 | 70.26580 | 37036 ft | 507 kts | 94° |
| 2026-05-05 14:36 | 47.78329 | 70.37046 | 37040 ft | 506 kts | 94° |
| 2026-05-05 14:37 | 47.78009 | 70.47497 | 37043 ft | 506 kts | 94° |
| 2026-05-05 14:37 | 47.77680 | 70.57946 | 37044 ft | 506 kts | 94° |
| 2026-05-05 14:38 | 47.77341 | 70.68396 | 37046 ft | 506 kts | 94° |
| 2026-05-05 14:38 | 47.76993 | 70.78835 | 37046 ft | 506 kts | 94° |
| 2026-05-05 14:39 | 47.76635 | 70.89275 | 37053 ft | 505 kts | 94° |
| 2026-05-05 14:39 | 47.76268 | 70.99707 | 37054 ft | 505 kts | 95° |
| 2026-05-05 14:40 | 47.75892 | 71.10139 | 37060 ft | 505 kts | 95° |
| 2026-05-05 14:40 | 47.75507 | 71.20555 | 37061 ft | 505 kts | 95° |
| 2026-05-05 14:41 | 47.75112 | 71.30979 | 37058 ft | 505 kts | 95° |
| 2026-05-05 14:41 | 47.74710 | 71.41340 | 37062 ft | 505 kts | 95° |
| 2026-05-05 14:42 | 47.74297 | 71.51761 | 37069 ft | 505 kts | 95° |
| 2026-05-05 14:42 | 47.73874 | 71.62172 | 37075 ft | 505 kts | 95° |
| 2026-05-05 14:43 | 47.73440 | 71.72594 | 37075 ft | 505 kts | 95° |
| 2026-05-05 14:43 | 47.72999 | 71.82999 | 37081 ft | 505 kts | 95° |
| 2026-05-05 14:44 | 47.72466 | 71.93396 | 37087 ft | 505 kts | 96° |
| 2026-05-05 14:44 | 47.71835 | 72.03778 | 37085 ft | 505 kts | 96° |
| 2026-05-05 14:45 | 47.71204 | 72.14159 | 37089 ft | 504 kts | 96° |
| 2026-05-05 14:45 | 47.70583 | 72.24527 | 37092 ft | 504 kts | 96° |
| 2026-05-05 14:46 | 47.69959 | 72.34878 | 37099 ft | 503 kts | 96° |
| 2026-05-05 14:46 | 47.69329 | 72.45202 | 37104 ft | 502 kts | 96° |
| 2026-05-05 14:47 | 47.68689 | 72.55521 | 37101 ft | 502 kts | 96° |
| 2026-05-05 14:47 | 47.68038 | 72.65836 | 37107 ft | 502 kts | 96° |
| 2026-05-05 14:48 | 47.67379 | 72.76147 | 37107 ft | 502 kts | 96° |
| 2026-05-05 14:48 | 47.66711 | 72.86461 | 37100 ft | 502 kts | 96° |
| 2026-05-05 14:49 | 47.66033 | 72.96772 | 37107 ft | 502 kts | 96° |
| 2026-05-05 14:49 | 47.65347 | 73.07068 | 37104 ft | 501 kts | 96° |
| 2026-05-05 14:50 | 47.64653 | 73.17347 | 37114 ft | 501 kts | 97° |
| 2026-05-05 14:50 | 47.63949 | 73.27625 | 37113 ft | 501 kts | 97° |
| 2026-05-05 14:51 | 47.63235 | 73.37906 | 37107 ft | 500 kts | 97° |
| 2026-05-05 14:51 | 47.62515 | 73.48145 | 37109 ft | 500 kts | 97° |
| 2026-05-05 14:52 | 47.61786 | 73.58373 | 37111 ft | 499 kts | 97° |
| 2026-05-05 14:52 | 47.61050 | 73.68588 | 37110 ft | 498 kts | 97° |
| 2026-05-05 14:53 | 47.60303 | 73.78806 | 37110 ft | 498 kts | 97° |
| 2026-05-05 14:53 | 47.59549 | 73.89015 | 37108 ft | 499 kts | 97° |
| 2026-05-05 14:54 | 47.58784 | 73.99214 | 37108 ft | 498 kts | 97° |
| 2026-05-05 14:54 | 47.58011 | 74.09404 | 37113 ft | 498 kts | 97° |
| 2026-05-05 14:55 | 47.57230 | 74.19590 | 37115 ft | 498 kts | 97° |
| 2026-05-05 14:55 | 47.56440 | 74.29774 | 37109 ft | 498 kts | 97° |
| 2026-05-05 14:56 | 47.55641 | 74.39951 | 37114 ft | 497 kts | 97° |
| 2026-05-05 14:56 | 47.54835 | 74.50108 | 37120 ft | 497 kts | 97° |
| 2026-05-05 14:57 | 47.54021 | 74.60257 | 37122 ft | 496 kts | 97° |
| 2026-05-05 14:57 | 47.53203 | 74.70333 | 37121 ft | 497 kts | 97° |
| 2026-05-05 14:58 | 47.52370 | 74.80468 | 37117 ft | 497 kts | 97° |
| 2026-05-05 14:58 | 47.51528 | 74.90614 | 37119 ft | 496 kts | 97° |
| 2026-05-05 14:59 | 47.50678 | 75.00738 | 37119 ft | 496 kts | 97° |
| 2026-05-05 14:59 | 47.49820 | 75.10860 | 37115 ft | 496 kts | 97° |
| 2026-05-05 15:00 | 47.49093 | 75.19334 | 37116 ft | 496 kts | 97° |
| 2026-05-05 15:00 | 47.48076 | 75.31094 | 37116 ft | 496 kts | 97° |
| 2026-05-05 15:01 | 47.47192 | 75.41193 | 37108 ft | 495 kts | 98° |
| 2026-05-05 15:01 | 47.46299 | 75.51285 | 37105 ft | 495 kts | 98° |
| 2026-05-05 15:02 | 47.45398 | 75.61367 | 37105 ft | 495 kts | 98° |
| 2026-05-05 15:02 | 47.44488 | 75.71449 | 37107 ft | 495 kts | 98° |
| 2026-05-05 15:03 | 47.43569 | 75.81526 | 37103 ft | 495 kts | 98° |
| 2026-05-05 15:03 | 47.42641 | 75.91598 | 37102 ft | 495 kts | 98° |
| 2026-05-05 15:04 | 47.41704 | 76.01673 | 37103 ft | 495 kts | 98° |
| 2026-05-05 15:04 | 47.40759 | 76.11740 | 37103 ft | 495 kts | 98° |
| 2026-05-05 15:05 | 47.39323 | 76.26845 | 37096 ft | 495 kts | 98° |
| 2026-05-05 15:06 | 47.38356 | 76.36891 | 37103 ft | 494 kts | 98° |
| 2026-05-05 15:06 | 47.37383 | 76.46919 | 37103 ft | 493 kts | 98° |
| 2026-05-05 15:07 | 47.36400 | 76.56944 | 37100 ft | 493 kts | 98° |
| 2026-05-05 15:07 | 47.35409 | 76.66962 | 37100 ft | 494 kts | 98° |
| 2026-05-05 15:08 | 47.34409 | 76.76982 | 37103 ft | 495 kts | 98° |
| 2026-05-05 15:08 | 47.33397 | 76.87021 | 37103 ft | 495 kts | 98° |
| 2026-05-05 15:09 | 47.32379 | 76.97038 | 37100 ft | 495 kts | 98° |
| 2026-05-05 15:09 | 47.31352 | 77.07066 | 37098 ft | 495 kts | 98° |
| 2026-05-05 15:10 | 47.30688 | 77.17140 | 37105 ft | 494 kts | 93° |
| 2026-05-05 15:10 | 47.30280 | 77.27243 | 37102 ft | 494 kts | 93° |
| 2026-05-05 15:11 | 47.29817 | 77.37339 | 37102 ft | 493 kts | 94° |
| 2026-05-05 15:11 | 47.29378 | 77.45713 | 37101 ft | 493 kts | 94° |
| 2026-05-05 15:12 | 47.28820 | 77.55772 | 37104 ft | 493 kts | 94° |
| 2026-05-05 15:12 | 47.28251 | 77.65847 | 37103 ft | 494 kts | 94° |
| 2026-05-05 15:13 | 47.27578 | 77.77619 | 37108 ft | 494 kts | 94° |
| 2026-05-05 15:13 | 47.27092 | 77.85991 | 37108 ft | 494 kts | 94° |
| 2026-05-05 15:14 | 47.26500 | 77.96061 | 37107 ft | 493 kts | 94° |
| 2026-05-05 15:14 | 47.25901 | 78.06112 | 37103 ft | 493 kts | 94° |
| 2026-05-05 15:15 | 47.25293 | 78.16154 | 37108 ft | 493 kts | 94° |
| 2026-05-05 15:15 | 47.24676 | 78.26208 | 37109 ft | 493 kts | 94° |
| 2026-05-05 15:16 | 47.24052 | 78.36251 | 37116 ft | 493 kts | 94° |
| 2026-05-05 15:16 | 47.23417 | 78.46299 | 37107 ft | 493 kts | 94° |
| 2026-05-05 15:17 | 47.22779 | 78.56258 | 37091 ft | 493 kts | 94° |
| 2026-05-05 15:17 | 47.22127 | 78.66289 | 37101 ft | 492 kts | 94° |
| 2026-05-05 15:18 | 47.21468 | 78.76301 | 37095 ft | 492 kts | 95° |
| 2026-05-05 15:18 | 47.20799 | 78.86323 | 37100 ft | 493 kts | 95° |
| 2026-05-05 15:19 | 47.20120 | 78.96352 | 37092 ft | 493 kts | 95° |
| 2026-05-05 15:19 | 47.19433 | 79.06389 | 37095 ft | 493 kts | 95° |
| 2026-05-05 15:20 | 47.18739 | 79.16409 | 37086 ft | 493 kts | 95° |
| 2026-05-05 15:20 | 47.18022 | 79.26435 | 37088 ft | 493 kts | 95° |
| 2026-05-05 15:21 | 47.17281 | 79.36448 | 37091 ft | 493 kts | 95° |
| 2026-05-05 15:21 | 47.16532 | 79.46469 | 37088 ft | 493 kts | 95° |
| 2026-05-05 15:22 | 47.15780 | 79.56478 | 37086 ft | 493 kts | 95° |
| 2026-05-05 15:22 | 47.15019 | 79.66497 | 37093 ft | 493 kts | 95° |
| 2026-05-05 15:23 | 47.14250 | 79.76500 | 37084 ft | 493 kts | 95° |
| 2026-05-05 15:23 | 47.13478 | 79.86444 | 37086 ft | 493 kts | 95° |
| 2026-05-05 15:24 | 47.12710 | 79.96447 | 37087 ft | 493 kts | 95° |
| 2026-05-05 15:24 | 47.11942 | 80.06441 | 37083 ft | 493 kts | 95° |
| 2026-05-05 15:25 | 47.11164 | 80.16431 | 37086 ft | 493 kts | 95° |
| 2026-05-05 15:25 | 47.10377 | 80.26420 | 37091 ft | 492 kts | 95° |
| 2026-05-05 15:26 | 47.09582 | 80.36397 | 37087 ft | 492 kts | 95° |
| 2026-05-05 15:26 | 47.08776 | 80.46386 | 37094 ft | 493 kts | 95° |
| 2026-05-05 15:27 | 47.07962 | 80.56358 | 37090 ft | 492 kts | 95° |
| 2026-05-05 15:27 | 47.07140 | 80.66330 | 37095 ft | 493 kts | 95° |
| 2026-05-05 15:28 | 47.06308 | 80.76313 | 37095 ft | 493 kts | 95° |
| 2026-05-05 15:28 | 47.05468 | 80.86285 | 37099 ft | 493 kts | 95° |
| 2026-05-05 15:29 | 47.04619 | 80.96260 | 37107 ft | 493 kts | 95° |
| 2026-05-05 15:29 | 47.03766 | 81.06225 | 37102 ft | 493 kts | 95° |
| 2026-05-05 15:30 | 47.02899 | 81.16204 | 37101 ft | 493 kts | 96° |
| 2026-05-05 15:30 | 47.02021 | 81.26169 | 37101 ft | 493 kts | 96° |
| 2026-05-05 15:31 | 47.01135 | 81.36141 | 37109 ft | 493 kts | 96° |
| 2026-05-05 15:31 | 47.00242 | 81.46102 | 37110 ft | 493 kts | 96° |
| 2026-05-05 15:32 | 46.99342 | 81.56064 | 37110 ft | 493 kts | 96° |
| 2026-05-05 15:32 | 46.98437 | 81.65960 | 37107 ft | 493 kts | 96° |
| 2026-05-05 15:33 | 46.97518 | 81.75910 | 37107 ft | 493 kts | 96° |
| 2026-05-05 15:33 | 46.96591 | 81.85864 | 37111 ft | 493 kts | 96° |
| 2026-05-05 15:34 | 46.95657 | 81.95812 | 37119 ft | 494 kts | 96° |
| 2026-05-05 15:34 | 46.94708 | 82.05760 | 37118 ft | 494 kts | 96° |
| 2026-05-05 15:35 | 46.93741 | 82.15702 | 37120 ft | 494 kts | 96° |
| 2026-05-05 15:35 | 46.92768 | 82.25649 | 37124 ft | 494 kts | 96° |
| 2026-05-05 15:36 | 46.91790 | 82.35581 | 37127 ft | 493 kts | 96° |
| 2026-05-05 15:36 | 46.90803 | 82.45520 | 37127 ft | 493 kts | 97° |
| 2026-05-05 15:37 | 46.89808 | 82.55450 | 37129 ft | 493 kts | 97° |
| 2026-05-05 15:37 | 46.88805 | 82.65373 | 37133 ft | 494 kts | 97° |
| 2026-05-05 15:38 | 46.87793 | 82.75285 | 37129 ft | 493 kts | 97° |
| 2026-05-05 15:38 | 46.86640 | 82.85167 | 37133 ft | 494 kts | 103° |
| 2026-05-05 15:39 | 46.83981 | 82.94422 | 37126 ft | 497 kts | 119° |
| 2026-05-05 15:39 | 46.80407 | 83.03029 | 37131 ft | 500 kts | 121° |
| 2026-05-05 15:40 | 46.76668 | 83.11598 | 37120 ft | 500 kts | 121° |
| 2026-05-05 15:40 | 46.72938 | 83.20153 | 37127 ft | 500 kts | 121° |
| 2026-05-05 15:41 | 46.69218 | 83.28731 | 37121 ft | 500 kts | 121° |
| 2026-05-05 15:41 | 46.65503 | 83.37300 | 37130 ft | 500 kts | 121° |
| 2026-05-05 15:42 | 46.61537 | 83.45627 | 37121 ft | 501 kts | 126° |
| 2026-05-05 15:42 | 46.57342 | 83.53721 | 37144 ft | 502 kts | 126° |
| 2026-05-05 15:43 | 46.53163 | 83.61841 | 37121 ft | 502 kts | 125° |
| 2026-05-05 15:43 | 46.49019 | 83.70005 | 37121 ft | 502 kts | 125° |
| 2026-05-05 15:44 | 46.44885 | 83.78175 | 37129 ft | 502 kts | 125° |
| 2026-05-05 15:44 | 46.40753 | 83.86322 | 37129 ft | 502 kts | 125° |
| 2026-05-05 15:45 | 46.36606 | 83.94470 | 37146 ft | 503 kts | 125° |
| 2026-05-05 15:45 | 46.32451 | 84.02605 | 37132 ft | 503 kts | 125° |
| 2026-05-05 15:46 | 46.28281 | 84.10744 | 37156 ft | 504 kts | 125° |
| 2026-05-05 15:46 | 46.24102 | 84.18881 | 37156 ft | 504 kts | 125° |
| 2026-05-05 15:47 | 46.19899 | 84.26984 | 37144 ft | 504 kts | 125° |
| 2026-05-05 15:47 | 46.15692 | 84.35056 | 37141 ft | 503 kts | 126° |
| 2026-05-05 15:48 | 46.11483 | 84.43121 | 37144 ft | 503 kts | 126° |
| 2026-05-05 15:48 | 46.07300 | 84.51119 | 37111 ft | 503 kts | 125° |
| 2026-05-05 15:49 | 46.03081 | 84.59167 | 37129 ft | 504 kts | 125° |
| 2026-05-05 15:49 | 45.98852 | 84.67210 | 37099 ft | 504 kts | 126° |
| 2026-05-05 15:50 | 45.94619 | 84.75235 | 37105 ft | 504 kts | 126° |
| 2026-05-05 15:50 | 45.90376 | 84.83255 | 37089 ft | 504 kts | 126° |
| 2026-05-05 15:51 | 45.86130 | 84.91257 | 37102 ft | 504 kts | 126° |
| 2026-05-05 15:51 | 45.81874 | 84.99257 | 37083 ft | 505 kts | 126° |
| 2026-05-05 15:52 | 45.77604 | 85.07263 | 37083 ft | 505 kts | 126° |
| 2026-05-05 15:52 | 45.73332 | 85.15248 | 37073 ft | 505 kts | 126° |
| 2026-05-05 15:53 | 45.69054 | 85.23224 | 37072 ft | 505 kts | 126° |
| 2026-05-05 15:53 | 45.64792 | 85.31209 | 37087 ft | 505 kts | 126° |
| 2026-05-05 15:54 | 45.60524 | 85.39194 | 37071 ft | 506 kts | 126° |
| 2026-05-05 15:54 | 45.56244 | 85.47176 | 37072 ft | 506 kts | 126° |
| 2026-05-05 15:55 | 45.51958 | 85.55144 | 37062 ft | 506 kts | 126° |
| 2026-05-05 15:55 | 45.47690 | 85.63054 | 37064 ft | 507 kts | 126° |
| 2026-05-05 15:56 | 45.43384 | 85.71014 | 37062 ft | 508 kts | 126° |
| 2026-05-05 15:56 | 45.39072 | 85.78963 | 37062 ft | 508 kts | 126° |
| 2026-05-05 15:57 | 45.34751 | 85.86905 | 37065 ft | 508 kts | 126° |
| 2026-05-05 15:57 | 45.30423 | 85.94836 | 37066 ft | 508 kts | 126° |
| 2026-05-05 15:58 | 45.26084 | 86.02768 | 37067 ft | 509 kts | 126° |
| 2026-05-05 15:58 | 45.21728 | 86.10708 | 37070 ft | 510 kts | 126° |
| 2026-05-05 15:59 | 45.17367 | 86.18634 | 37074 ft | 510 kts | 126° |
| 2026-05-05 15:59 | 45.12989 | 86.26570 | 37072 ft | 511 kts | 126° |
| 2026-05-05 16:00 | 45.08606 | 86.34493 | 37073 ft | 511 kts | 126° |
| 2026-05-05 16:00 | 45.04212 | 86.42414 | 37075 ft | 511 kts | 126° |
| 2026-05-05 16:01 | 44.99812 | 86.50320 | 37073 ft | 512 kts | 126° |
| 2026-05-05 16:01 | 44.96157 | 86.56875 | 37092 ft | 511 kts | 127° |
| 2026-05-05 16:02 | 44.91752 | 86.64753 | 37074 ft | 511 kts | 127° |
| 2026-05-05 16:02 | 44.87348 | 86.72607 | 37081 ft | 510 kts | 127° |
| 2026-05-05 16:03 | 44.82944 | 86.80441 | 37078 ft | 510 kts | 127° |
| 2026-05-05 16:03 | 44.78498 | 86.88236 | 37078 ft | 510 kts | 128° |
| 2026-05-05 16:04 | 44.74011 | 86.95971 | 37096 ft | 510 kts | 128° |
| 2026-05-05 16:04 | 44.69536 | 87.03698 | 37082 ft | 510 kts | 128° |
| 2026-05-05 16:05 | 44.65064 | 87.11434 | 37084 ft | 509 kts | 128° |
| 2026-05-05 16:05 | 44.60595 | 87.19150 | 37087 ft | 509 kts | 128° |
| 2026-05-05 16:06 | 44.56118 | 87.26861 | 37085 ft | 510 kts | 128° |
| 2026-05-05 16:06 | 44.51700 | 87.34638 | 37094 ft | 510 kts | 127° |
| 2026-05-05 16:07 | 44.47422 | 87.42570 | 37086 ft | 511 kts | 126° |
| 2026-05-05 16:07 | 44.43140 | 87.50501 | 37087 ft | 511 kts | 127° |
| 2026-05-05 16:08 | 44.38854 | 87.58349 | 37086 ft | 511 kts | 127° |
| 2026-05-05 16:08 | 44.34518 | 87.66231 | 37090 ft | 512 kts | 128° |
| 2026-05-05 16:09 | 44.30171 | 87.74185 | 37098 ft | 512 kts | 127° |
| 2026-05-05 16:09 | 44.25900 | 87.82159 | 37098 ft | 513 kts | 127° |
| 2026-05-05 16:10 | 44.21781 | 87.90205 | 37106 ft | 514 kts | 120° |
| 2026-05-05 16:10 | 44.19157 | 87.99397 | 37112 ft | 512 kts | 101° |
| 2026-05-05 16:11 | 44.17652 | 88.09075 | 37125 ft | 512 kts | 107° |
| 2026-05-05 16:12 | 44.12944 | 88.27881 | 37145 ft | 516 kts | 109° |
| 2026-05-05 16:13 | 44.07205 | 88.51515 | 37157 ft | 516 kts | 109° |
| 2026-05-05 16:13 | 44.04912 | 88.60991 | 37162 ft | 518 kts | 109° |
| 2026-05-05 16:14 | 44.00281 | 88.79979 | 37148 ft | 520 kts | 109° |
| 2026-05-05 16:15 | 43.95594 | 88.99025 | 37162 ft | 522 kts | 109° |
| 2026-05-05 16:16 | 43.90875 | 89.18044 | 37155 ft | 521 kts | 110° |
| 2026-05-05 16:17 | 43.87314 | 89.32287 | 37161 ft | 521 kts | 110° |
| 2026-05-05 16:18 | 43.83744 | 89.46490 | 37158 ft | 521 kts | 110° |
| 2026-05-05 16:19 | 43.80153 | 89.60684 | 37177 ft | 520 kts | 110° |
| 2026-05-05 16:19 | 43.76562 | 89.74789 | 37176 ft | 520 kts | 110° |
| 2026-05-05 16:20 | 43.71727 | 89.93652 | 37191 ft | 520 kts | 111° |
| 2026-05-05 16:22 | 43.65633 | 90.17214 | 37197 ft | 522 kts | 111° |
| 2026-05-05 16:23 | 43.60715 | 90.36060 | 37185 ft | 523 kts | 112° |
| 2026-05-05 16:23 | 43.56995 | 90.50219 | 37160 ft | 525 kts | 112° |
| 2026-05-05 16:24 | 43.54499 | 90.59668 | 37161 ft | 525 kts | 112° |
| 2026-05-05 16:25 | 43.50739 | 90.73836 | 37130 ft | 525 kts | 112° |
| 2026-05-05 16:25 | 43.46964 | 90.87978 | 37118 ft | 524 kts | 113° |
| 2026-05-05 16:26 | 43.41914 | 91.06771 | 37084 ft | 524 kts | 113° |
| 2026-05-05 16:27 | 43.39379 | 91.16150 | 37078 ft | 523 kts | 114° |
| 2026-05-05 16:27 | 43.36832 | 91.25535 | 37069 ft | 524 kts | 114° |
| 2026-05-05 16:28 | 43.34276 | 91.34915 | 37069 ft | 524 kts | 114° |
| 2026-05-05 16:28 | 43.31710 | 91.44291 | 37046 ft | 525 kts | 114° |
| 2026-05-05 16:29 | 43.29137 | 91.53666 | 37046 ft | 525 kts | 114° |
| 2026-05-05 16:29 | 43.26550 | 91.63051 | 37043 ft | 527 kts | 114° |
| 2026-05-05 16:30 | 43.23961 | 91.72412 | 37026 ft | 528 kts | 114° |
| 2026-05-05 16:30 | 43.21348 | 91.81820 | 37026 ft | 528 kts | 114° |
| 2026-05-05 16:31 | 43.18725 | 91.91231 | 37026 ft | 528 kts | 114° |
| 2026-05-05 16:31 | 43.16093 | 92.00640 | 37005 ft | 531 kts | 115° |
| 2026-05-05 16:32 | 43.13438 | 92.10088 | 37001 ft | 532 kts | 115° |
| 2026-05-05 16:32 | 43.10775 | 92.19535 | 36997 ft | 532 kts | 115° |
| 2026-05-05 16:33 | 43.08106 | 92.28969 | 37001 ft | 532 kts | 115° |
| 2026-05-05 16:33 | 43.05425 | 92.38404 | 37000 ft | 534 kts | 115° |
| 2026-05-05 16:34 | 43.02725 | 92.47874 | 37001 ft | 535 kts | 115° |
| 2026-05-05 16:34 | 43.00013 | 92.57350 | 36991 ft | 535 kts | 115° |
| 2026-05-05 16:35 | 42.97295 | 92.66810 | 36978 ft | 536 kts | 115° |
| 2026-05-05 16:35 | 42.94566 | 92.76274 | 36987 ft | 536 kts | 115° |
| 2026-05-05 16:36 | 42.91827 | 92.85736 | 36996 ft | 536 kts | 115° |
| 2026-05-05 16:36 | 42.89104 | 92.95109 | 36976 ft | 535 kts | 115° |
| 2026-05-05 16:37 | 42.86335 | 93.04603 | 36973 ft | 535 kts | 115° |
| 2026-05-05 16:37 | 42.83598 | 93.13954 | 36983 ft | 534 kts | 116° |
| 2026-05-05 16:38 | 42.80838 | 93.23350 | 36981 ft | 534 kts | 116° |
| 2026-05-05 16:38 | 42.78075 | 93.32722 | 36982 ft | 534 kts | 116° |
| 2026-05-05 16:39 | 42.75300 | 93.42097 | 36987 ft | 533 kts | 116° |
| 2026-05-05 16:39 | 42.72524 | 93.51441 | 36984 ft | 533 kts | 116° |
| 2026-05-05 16:40 | 42.69739 | 93.60781 | 36985 ft | 533 kts | 116° |
| 2026-05-05 16:40 | 42.66950 | 93.70106 | 36985 ft | 533 kts | 116° |
| 2026-05-05 16:41 | 42.64154 | 93.79421 | 36985 ft | 533 kts | 116° |
| 2026-05-05 16:41 | 42.61348 | 93.88733 | 36978 ft | 532 kts | 116° |
| 2026-05-05 16:42 | 42.58542 | 93.98012 | 36987 ft | 531 kts | 116° |
| 2026-05-05 16:42 | 42.55731 | 94.07274 | 36990 ft | 531 kts | 116° |
| 2026-05-05 16:43 | 42.52910 | 94.16533 | 36987 ft | 531 kts | 116° |
| 2026-05-05 16:43 | 42.50086 | 94.25776 | 36988 ft | 530 kts | 117° |
| 2026-05-05 16:44 | 42.47260 | 94.34990 | 36996 ft | 530 kts | 117° |
| 2026-05-05 16:44 | 42.44422 | 94.44206 | 37001 ft | 530 kts | 117° |
| 2026-05-05 16:45 | 42.41580 | 94.53406 | 37002 ft | 530 kts | 117° |
| 2026-05-05 16:45 | 42.38729 | 94.62603 | 37011 ft | 530 kts | 117° |
| 2026-05-05 16:46 | 42.35879 | 94.71766 | 37013 ft | 529 kts | 117° |
| 2026-05-05 16:46 | 42.33021 | 94.80923 | 37023 ft | 528 kts | 117° |
| 2026-05-05 16:47 | 42.30156 | 94.90071 | 37014 ft | 528 kts | 117° |
| 2026-05-05 16:47 | 42.27306 | 94.99139 | 37025 ft | 528 kts | 118° |
| 2026-05-05 16:48 | 42.24896 | 95.06781 | 37045 ft | 529 kts | 118° |
| 2026-05-05 16:48 | 42.21540 | 95.17386 | 37044 ft | 529 kts | 118° |
| 2026-05-05 16:49 | 42.18645 | 95.26504 | 37053 ft | 529 kts | 118° |
| 2026-05-05 16:49 | 42.15746 | 95.35606 | 37061 ft | 529 kts | 118° |
| 2026-05-05 16:50 | 42.13329 | 95.43168 | 37064 ft | 529 kts | 119° |
| 2026-05-05 16:50 | 42.10407 | 95.52280 | 37072 ft | 530 kts | 119° |
| 2026-05-05 16:51 | 42.07480 | 95.61379 | 37069 ft | 529 kts | 119° |
| 2026-05-05 16:51 | 42.04553 | 95.70456 | 37071 ft | 528 kts | 119° |
| 2026-05-05 16:52 | 42.01625 | 95.79502 | 37083 ft | 526 kts | 120° |
| 2026-05-05 16:52 | 41.98698 | 95.88507 | 37083 ft | 525 kts | 120° |
| 2026-05-05 16:53 | 41.95766 | 95.97497 | 37091 ft | 525 kts | 120° |
| 2026-05-05 16:53 | 41.92829 | 96.06473 | 37091 ft | 525 kts | 120° |
| 2026-05-05 16:54 | 41.89886 | 96.15442 | 37088 ft | 525 kts | 121° |
| 2026-05-05 16:54 | 41.87610 | 96.24825 | 37088 ft | 538 kts | 104° |
| 2026-05-05 16:55 | 41.87283 | 96.34936 | 37087 ft | 546 kts | 92° |
| 2026-05-05 16:55 | 41.87767 | 96.45114 | 37084 ft | 547 kts | 90° |
| 2026-05-05 16:56 | 41.88334 | 96.55228 | 37088 ft | 548 kts | 90° |
| 2026-05-05 16:56 | 41.88823 | 96.65447 | 37078 ft | 548 kts | 91° |
| 2026-05-05 16:57 | 41.89253 | 96.75657 | 37080 ft | 548 kts | 91° |
| 2026-05-05 16:57 | 41.89663 | 96.85871 | 37065 ft | 548 kts | 92° |
| 2026-05-05 16:58 | 41.90067 | 96.96108 | 37071 ft | 550 kts | 92° |
| 2026-05-05 16:58 | 41.90467 | 97.06373 | 37071 ft | 551 kts | 92° |
| 2026-05-05 16:59 | 41.90857 | 97.16636 | 37061 ft | 550 kts | 92° |
| 2026-05-05 16:59 | 41.91239 | 97.26894 | 37058 ft | 550 kts | 92° |
| 2026-05-05 17:00 | 41.91610 | 97.37151 | 37049 ft | 550 kts | 92° |
| 2026-05-05 17:00 | 41.91973 | 97.47416 | 37053 ft | 550 kts | 92° |
| 2026-05-05 17:01 | 41.92327 | 97.57682 | 37047 ft | 550 kts | 92° |
| 2026-05-05 17:01 | 41.92672 | 97.67950 | 37043 ft | 552 kts | 92° |
| 2026-05-05 17:02 | 41.93007 | 97.78204 | 37034 ft | 553 kts | 92° |
| 2026-05-05 17:02 | 41.93335 | 97.88528 | 37035 ft | 554 kts | 92° |
| 2026-05-05 17:03 | 41.93655 | 97.98871 | 37026 ft | 555 kts | 92° |
| 2026-05-05 17:03 | 41.93965 | 98.09253 | 37035 ft | 557 kts | 92° |
| 2026-05-05 17:04 | 41.94268 | 98.19651 | 37024 ft | 558 kts | 92° |
| 2026-05-05 17:04 | 41.94562 | 98.30059 | 37023 ft | 557 kts | 92° |
| 2026-05-05 17:05 | 41.94846 | 98.40468 | 37015 ft | 558 kts | 92° |
| 2026-05-05 17:05 | 41.95121 | 98.50894 | 37024 ft | 558 kts | 92° |
| 2026-05-05 17:06 | 41.95386 | 98.61310 | 37018 ft | 558 kts | 92° |
| 2026-05-05 17:06 | 41.95642 | 98.71742 | 37011 ft | 558 kts | 93° |
| 2026-05-05 17:07 | 41.95888 | 98.82171 | 37014 ft | 559 kts | 93° |
| 2026-05-05 17:07 | 41.96125 | 98.92614 | 37015 ft | 559 kts | 93° |
| 2026-05-05 17:08 | 41.96354 | 99.03053 | 37009 ft | 559 kts | 93° |
| 2026-05-05 17:08 | 41.96572 | 99.13494 | 37007 ft | 560 kts | 93° |
| 2026-05-05 17:09 | 41.96781 | 99.23991 | 37001 ft | 563 kts | 93° |
| 2026-05-05 17:09 | 41.96982 | 99.34510 | 36995 ft | 563 kts | 93° |
| 2026-05-05 17:10 | 41.97174 | 99.45030 | 36994 ft | 563 kts | 93° |
| 2026-05-05 17:10 | 41.97357 | 99.55570 | 36989 ft | 565 kts | 93° |
| 2026-05-05 17:11 | 41.97529 | 99.66147 | 36990 ft | 567 kts | 93° |
| 2026-05-05 17:11 | 41.97692 | 99.76741 | 36988 ft | 567 kts | 93° |
| 2026-05-05 17:12 | 41.97847 | 99.87321 | 36994 ft | 567 kts | 93° |
| 2026-05-05 17:12 | 41.97991 | 99.97937 | 36990 ft | 569 kts | 93° |
| 2026-05-05 17:13 | 41.98125 | 100.08597 | 36987 ft | 572 kts | 93° |
| 2026-05-05 17:13 | 41.98250 | 100.19277 | 36988 ft | 572 kts | 93° |
| 2026-05-05 17:14 | 41.98366 | 100.29951 | 36985 ft | 571 kts | 93° |
| 2026-05-05 17:14 | 41.98471 | 100.40544 | 36985 ft | 570 kts | 93° |
| 2026-05-05 17:15 | 41.98567 | 100.51208 | 36982 ft | 570 kts | 93° |
| 2026-05-05 17:15 | 41.98653 | 100.61863 | 36987 ft | 571 kts | 93° |
| 2026-05-05 17:16 | 41.98730 | 100.72573 | 36979 ft | 574 kts | 93° |
| 2026-05-05 17:16 | 41.98796 | 100.83293 | 36979 ft | 574 kts | 93° |
| 2026-05-05 17:17 | 41.98853 | 100.94033 | 36980 ft | 574 kts | 93° |
| 2026-05-05 17:17 | 41.98508 | 101.04700 | 36980 ft | 567 kts | 105° |
| 2026-05-05 17:18 | 41.96321 | 101.14735 | 36975 ft | 558 kts | 116° |
| 2026-05-05 17:18 | 41.93668 | 101.24523 | 36976 ft | 558 kts | 117° |
| 2026-05-05 17:19 | 41.90948 | 101.34279 | 36979 ft | 559 kts | 117° |
| 2026-05-05 17:19 | 41.88227 | 101.44096 | 36976 ft | 562 kts | 117° |
| 2026-05-05 17:20 | 41.85512 | 101.53948 | 36978 ft | 563 kts | 117° |
| 2026-05-05 17:20 | 41.82798 | 101.63786 | 36976 ft | 563 kts | 117° |
| 2026-05-05 17:21 | 41.80074 | 101.73617 | 36955 ft | 563 kts | 117° |
| 2026-05-05 17:22 | 41.75955 | 101.88390 | 36975 ft | 564 kts | 117° |
| 2026-05-05 17:22 | 41.73198 | 101.98235 | 36971 ft | 564 kts | 117° |
| 2026-05-05 17:23 | 41.70434 | 102.08064 | 36971 ft | 564 kts | 117° |
| 2026-05-05 17:23 | 41.67655 | 102.17902 | 36971 ft | 566 kts | 117° |
| 2026-05-05 17:24 | 41.64880 | 102.27697 | 36969 ft | 567 kts | 117° |
| 2026-05-05 17:24 | 41.62062 | 102.37604 | 36966 ft | 567 kts | 117° |
| 2026-05-05 17:25 | 41.59253 | 102.47438 | 36962 ft | 567 kts | 117° |
| 2026-05-05 17:25 | 41.56445 | 102.57228 | 36963 ft | 568 kts | 117° |
| 2026-05-05 17:26 | 41.53608 | 102.67087 | 36963 ft | 569 kts | 117° |
| 2026-05-05 17:26 | 41.50804 | 102.76955 | 36964 ft | 569 kts | 116° |
| 2026-05-05 17:27 | 41.48141 | 102.86891 | 36962 ft | 569 kts | 115° |
| 2026-05-05 17:27 | 41.45604 | 102.96884 | 36948 ft | 568 kts | 115° |
| 2026-05-05 17:28 | 41.43022 | 103.06783 | 36954 ft | 563 kts | 116° |
| 2026-05-05 17:28 | 41.40297 | 103.16539 | 36972 ft | 562 kts | 117° |
| 2026-05-05 17:29 | 41.37543 | 103.26289 | 36970 ft | 563 kts | 116° |
| 2026-05-05 17:29 | 41.34794 | 103.36067 | 36968 ft | 564 kts | 116° |
| 2026-05-05 17:30 | 41.32053 | 103.45832 | 36972 ft | 564 kts | 116° |
| 2026-05-05 17:30 | 41.29303 | 103.55603 | 36955 ft | 564 kts | 116° |
| 2026-05-05 17:31 | 41.26542 | 103.65365 | 36952 ft | 565 kts | 116° |
| 2026-05-05 17:31 | 41.23769 | 103.75135 | 36952 ft | 565 kts | 116° |
| 2026-05-05 17:32 | 41.20990 | 103.84886 | 36950 ft | 565 kts | 117° |
| 2026-05-05 17:32 | 41.18219 | 103.94571 | 36959 ft | 564 kts | 117° |
| 2026-05-05 17:33 | 41.15428 | 104.04292 | 36957 ft | 563 kts | 117° |
| 2026-05-05 17:33 | 41.12629 | 104.14000 | 36960 ft | 563 kts | 117° |
| 2026-05-05 17:34 | 41.09824 | 104.23695 | 36917 ft | 563 kts | 117° |
| 2026-05-05 17:34 | 41.07016 | 104.33371 | 36956 ft | 561 kts | 117° |
| 2026-05-05 17:35 | 41.04213 | 104.42993 | 36953 ft | 560 kts | 117° |
| 2026-05-05 17:35 | 41.01420 | 104.52624 | 36947 ft | 560 kts | 116° |
| 2026-05-05 17:36 | 40.98739 | 104.62324 | 36951 ft | 561 kts | 116° |
| 2026-05-05 17:36 | 40.96076 | 104.72015 | 36945 ft | 561 kts | 116° |
| 2026-05-05 17:37 | 40.93385 | 104.81698 | 36941 ft | 561 kts | 116° |
| 2026-05-05 17:37 | 40.90675 | 104.91363 | 36942 ft | 561 kts | 116° |
| 2026-05-05 17:38 | 40.87954 | 105.01018 | 36938 ft | 561 kts | 116° |
| 2026-05-05 17:38 | 40.85663 | 105.09117 | 36928 ft | 562 kts | 116° |
| 2026-05-05 17:39 | 40.82924 | 105.18778 | 36929 ft | 562 kts | 116° |
| 2026-05-05 17:39 | 40.80192 | 105.28376 | 36918 ft | 562 kts | 116° |
| 2026-05-05 17:40 | 40.77431 | 105.38037 | 36914 ft | 563 kts | 116° |
| 2026-05-05 17:40 | 40.74659 | 105.47701 | 36913 ft | 564 kts | 116° |
| 2026-05-05 17:41 | 40.71875 | 105.57377 | 36906 ft | 564 kts | 116° |
| 2026-05-05 17:41 | 40.69084 | 105.67036 | 36898 ft | 565 kts | 116° |
| 2026-05-05 17:42 | 40.66266 | 105.76747 | 36887 ft | 570 kts | 116° |
| 2026-05-05 17:42 | 40.63427 | 105.86502 | 36875 ft | 571 kts | 116° |
| 2026-05-05 17:43 | 40.60578 | 105.96255 | 36864 ft | 570 kts | 116° |
| 2026-05-05 17:43 | 40.57724 | 106.05989 | 36866 ft | 571 kts | 116° |
| 2026-05-05 17:44 | 40.54851 | 106.15745 | 36855 ft | 572 kts | 116° |
| 2026-05-05 17:44 | 40.51969 | 106.25501 | 36839 ft | 572 kts | 116° |
| 2026-05-05 17:45 | 40.49078 | 106.35244 | 36827 ft | 573 kts | 116° |
| 2026-05-05 17:45 | 40.46176 | 106.44995 | 36834 ft | 573 kts | 116° |
| 2026-05-05 17:46 | 40.43267 | 106.54736 | 36829 ft | 573 kts | 116° |
| 2026-05-05 17:46 | 40.40345 | 106.64479 | 36826 ft | 573 kts | 116° |
| 2026-05-05 17:47 | 40.37417 | 106.74210 | 36817 ft | 573 kts | 116° |
| 2026-05-05 17:47 | 40.34484 | 106.83919 | 36822 ft | 572 kts | 116° |
| 2026-05-05 17:48 | 40.31916 | 106.93807 | 36820 ft | 578 kts | 104° |
| 2026-05-05 17:48 | 40.31466 | 106.99046 | 36819 ft | 580 kts | 91° |
| 2026-05-05 17:48 | 40.31725 | 107.04302 | 36831 ft | 579 kts | 83° |
| 2026-05-05 17:49 | 40.32897 | 107.14740 | 36830 ft | 578 kts | 79° |
| 2026-05-05 17:49 | 40.34255 | 107.25097 | 36821 ft | 577 kts | 79° |
| 2026-05-05 17:50 | 40.35586 | 107.35474 | 36820 ft | 577 kts | 79° |
| 2026-05-05 17:50 | 40.36856 | 107.45794 | 36825 ft | 577 kts | 80° |
| 2026-05-05 17:51 | 40.38107 | 107.56174 | 36821 ft | 576 kts | 80° |
| 2026-05-05 17:51 | 40.39355 | 107.66613 | 36817 ft | 576 kts | 80° |
| 2026-05-05 17:52 | 40.40591 | 107.77001 | 36818 ft | 577 kts | 80° |
| 2026-05-05 17:52 | 40.41814 | 107.87354 | 36809 ft | 578 kts | 80° |
| 2026-05-05 17:53 | 40.43035 | 107.97778 | 36805 ft | 578 kts | 80° |
| 2026-05-05 17:53 | 40.44244 | 108.08201 | 36800 ft | 578 kts | 80° |
| 2026-05-05 17:54 | 40.45444 | 108.18645 | 36801 ft | 578 kts | 80° |
| 2026-05-05 17:54 | 40.46634 | 108.29082 | 36799 ft | 578 kts | 80° |
| 2026-05-05 17:55 | 40.47814 | 108.39527 | 36803 ft | 578 kts | 80° |
| 2026-05-05 17:55 | 40.48986 | 108.49985 | 36811 ft | 578 kts | 80° |
| 2026-05-05 17:56 | 40.50147 | 108.60430 | 36793 ft | 578 kts | 80° |
| 2026-05-05 17:56 | 40.51301 | 108.70894 | 36795 ft | 578 kts | 80° |
| 2026-05-05 17:57 | 40.52445 | 108.81359 | 36780 ft | 579 kts | 80° |
| 2026-05-05 17:57 | 40.53579 | 108.91824 | 36772 ft | 579 kts | 80° |
| 2026-05-05 17:58 | 40.54704 | 109.02291 | 36769 ft | 579 kts | 80° |
| 2026-05-05 17:58 | 40.55819 | 109.12768 | 36758 ft | 578 kts | 80° |
| 2026-05-05 17:59 | 40.56924 | 109.23235 | 36816 ft | 577 kts | 80° |
| 2026-05-05 17:59 | 40.58017 | 109.33679 | 36782 ft | 577 kts | 80° |
| 2026-05-05 18:00 | 40.59096 | 109.44087 | 36780 ft | 578 kts | 81° |
| 2026-05-05 18:00 | 40.60173 | 109.54571 | 36777 ft | 577 kts | 81° |
| 2026-05-05 18:01 | 40.61236 | 109.65026 | 36777 ft | 576 kts | 81° |
| 2026-05-05 18:01 | 40.62289 | 109.75463 | 36785 ft | 576 kts | 81° |
| 2026-05-05 18:02 | 40.63335 | 109.85919 | 36778 ft | 576 kts | 81° |
| 2026-05-05 18:02 | 40.64349 | 109.96382 | 36772 ft | 577 kts | 83° |
| 2026-05-05 18:03 | 40.64561 | 110.06966 | 36774 ft | 580 kts | 89° |
| 2026-05-05 18:03 | 40.64520 | 110.17586 | 36765 ft | 581 kts | 90° |
| 2026-05-05 18:04 | 40.64430 | 110.28235 | 36782 ft | 581 kts | 90° |
| 2026-05-05 18:04 | 40.64343 | 110.38880 | 36776 ft | 581 kts | 90° |
| 2026-05-05 18:05 | 40.64260 | 110.49510 | 36771 ft | 581 kts | 90° |
| 2026-05-05 18:05 | 40.64172 | 110.60119 | 36779 ft | 579 kts | 90° |
| 2026-05-05 18:06 | 40.64076 | 110.70712 | 36789 ft | 579 kts | 90° |
| 2026-05-05 18:06 | 40.63968 | 110.81320 | 36764 ft | 579 kts | 90° |
| 2026-05-05 18:07 | 40.63849 | 110.91922 | 36775 ft | 578 kts | 90° |
| 2026-05-05 18:07 | 40.63720 | 111.02502 | 36766 ft | 578 kts | 90° |
| 2026-05-05 18:08 | 40.63583 | 111.13070 | 36815 ft | 578 kts | 90° |
| 2026-05-05 18:08 | 40.63441 | 111.23644 | 36774 ft | 579 kts | 90° |
| 2026-05-05 18:09 | 40.63286 | 111.34175 | 36770 ft | 579 kts | 90° |
| 2026-05-05 18:09 | 40.63117 | 111.44764 | 36759 ft | 579 kts | 90° |
| 2026-05-05 18:10 | 40.62939 | 111.55366 | 36765 ft | 579 kts | 90° |
| 2026-05-05 18:10 | 40.62753 | 111.65960 | 36771 ft | 579 kts | 90° |
| 2026-05-05 18:11 | 40.62559 | 111.76554 | 36775 ft | 579 kts | 90° |
| 2026-05-05 18:11 | 40.62354 | 111.87140 | 36769 ft | 578 kts | 90° |
| 2026-05-05 18:12 | 40.62156 | 111.97697 | 36768 ft | 576 kts | 90° |
| 2026-05-05 18:12 | 40.61929 | 112.08225 | 36778 ft | 576 kts | 91° |
| 2026-05-05 18:13 | 40.61688 | 112.18765 | 36775 ft | 575 kts | 91° |
| 2026-05-05 18:13 | 40.61440 | 112.29271 | 36799 ft | 574 kts | 91° |
| 2026-05-05 18:14 | 40.61186 | 112.39776 | 36778 ft | 576 kts | 91° |
| 2026-05-05 18:14 | 40.60924 | 112.50317 | 36776 ft | 576 kts | 91° |
| 2026-05-05 18:15 | 40.60432 | 112.60816 | 36784 ft | 575 kts | 94° |
| 2026-05-05 18:15 | 40.59750 | 112.71311 | 36786 ft | 575 kts | 94° |
| 2026-05-05 18:16 | 40.58961 | 112.81782 | 36784 ft | 576 kts | 96° |
| 2026-05-05 18:16 | 40.58135 | 112.92269 | 36777 ft | 576 kts | 95° |
| 2026-05-05 18:17 | 40.57434 | 113.02770 | 36779 ft | 576 kts | 94° |
| 2026-05-05 18:17 | 40.56752 | 113.13200 | 36784 ft | 576 kts | 94° |
| 2026-05-05 18:18 | 40.56046 | 113.23702 | 36778 ft | 577 kts | 94° |
| 2026-05-05 18:18 | 40.55316 | 113.34222 | 36783 ft | 577 kts | 94° |
| 2026-05-05 18:19 | 40.54576 | 113.44730 | 36761 ft | 578 kts | 94° |
| 2026-05-05 18:19 | 40.53828 | 113.55236 | 36760 ft | 577 kts | 94° |
| 2026-05-05 18:20 | 40.53072 | 113.65726 | 36769 ft | 576 kts | 94° |
| 2026-05-05 18:20 | 40.52307 | 113.76214 | 36738 ft | 578 kts | 94° |
| 2026-05-05 18:21 | 40.51529 | 113.86719 | 36758 ft | 577 kts | 94° |
| 2026-05-05 18:21 | 40.50747 | 113.97198 | 36735 ft | 576 kts | 94° |
| 2026-05-05 18:22 | 40.50088 | 114.07689 | 36720 ft | 576 kts | 91° |
| 2026-05-05 18:22 | 40.49707 | 114.18184 | 36729 ft | 573 kts | 91° |
| 2026-05-05 18:23 | 40.49328 | 114.28635 | 36721 ft | 573 kts | 91° |
| 2026-05-05 18:23 | 40.48891 | 114.39088 | 36719 ft | 573 kts | 91° |
| 2026-05-05 18:24 | 40.48418 | 114.49537 | 36722 ft | 573 kts | 91° |
| 2026-05-05 18:24 | 40.47933 | 114.59971 | 36723 ft | 573 kts | 91° |
| 2026-05-05 18:25 | 40.47524 | 114.68655 | 36708 ft | 573 kts | 91° |
| 2026-05-05 18:25 | 40.46945 | 114.80792 | 36709 ft | 573 kts | 92° |
| 2026-05-05 18:26 | 40.46436 | 114.91236 | 36712 ft | 573 kts | 92° |
| 2026-05-05 18:26 | 40.45918 | 115.01691 | 36716 ft | 573 kts | 92° |
| 2026-05-05 18:27 | 40.45478 | 115.10431 | 36706 ft | 573 kts | 92° |
| 2026-05-05 18:27 | 40.44942 | 115.20881 | 36703 ft | 573 kts | 92° |
| 2026-05-05 18:28 | 40.44119 | 115.36550 | 36702 ft | 573 kts | 91° |
| 2026-05-05 18:28 | 40.43564 | 115.46917 | 36711 ft | 573 kts | 92° |
| 2026-05-05 18:29 | 40.42978 | 115.57348 | 36715 ft | 574 kts | 93° |
| 2026-05-05 18:29 | 40.42148 | 115.67761 | 36715 ft | 574 kts | 94° |
| 2026-05-05 18:30 | 40.41235 | 115.78186 | 36715 ft | 575 kts | 94° |
| 2026-05-05 18:30 | 40.40347 | 115.88608 | 36714 ft | 574 kts | 94° |
| 2026-05-05 18:31 | 40.39478 | 115.99021 | 36711 ft | 574 kts | 94° |
| 2026-05-05 18:31 | 40.38606 | 116.09446 | 36706 ft | 576 kts | 94° |
| 2026-05-05 18:32 | 40.37722 | 116.19897 | 36701 ft | 577 kts | 94° |
| 2026-05-05 18:32 | 40.36825 | 116.30353 | 36693 ft | 576 kts | 94° |
| 2026-05-05 18:33 | 40.35920 | 116.40780 | 36694 ft | 575 kts | 94° |
| 2026-05-05 18:33 | 40.35006 | 116.51196 | 36695 ft | 575 kts | 94° |
| 2026-05-05 18:34 | 40.33903 | 116.61583 | 36698 ft | 578 kts | 102° |
| 2026-05-05 18:34 | 40.32647 | 116.66589 | 36698 ft | 579 kts | 114° |
| 2026-05-05 18:34 | 40.30707 | 116.71204 | 36695 ft | 577 kts | 127° |
| 2026-05-05 18:35 | 40.28136 | 116.75193 | 36695 ft | 571 kts | 141° |
| 2026-05-05 18:35 | 40.25049 | 116.78391 | 36693 ft | 562 kts | 154° |
| 2026-05-05 18:35 | 40.21602 | 116.80694 | 36689 ft | 551 kts | 167° |
| 2026-05-05 18:35 | 40.17966 | 116.82061 | 36681 ft | 537 kts | 179° |
| 2026-05-05 18:36 | 40.14306 | 116.82514 | 36695 ft | 522 kts | 191° |
| 2026-05-05 18:36 | 40.10746 | 116.82116 | 36687 ft | 507 kts | 201° |
| 2026-05-05 18:36 | 40.03664 | 116.81048 | 36689 ft | 527 kts | 189° |
| 2026-05-05 18:37 | 39.96263 | 116.81968 | 36690 ft | 537 kts | 181° |
| 2026-05-05 18:37 | 39.88861 | 116.83423 | 36694 ft | 539 kts | 180° |
| 2026-05-05 18:38 | 39.81502 | 116.84954 | 36689 ft | 538 kts | 180° |
| 2026-05-05 18:38 | 39.74107 | 116.86483 | 36687 ft | 539 kts | 180° |
| 2026-05-05 18:39 | 39.66690 | 116.88035 | 36695 ft | 541 kts | 179° |
| 2026-05-05 18:39 | 39.59250 | 116.89580 | 36694 ft | 542 kts | 179° |
| 2026-05-05 18:40 | 39.51793 | 116.91119 | 36687 ft | 543 kts | 179° |
| 2026-05-05 18:40 | 39.44338 | 116.92654 | 36687 ft | 543 kts | 179° |
| 2026-05-05 18:41 | 39.36884 | 116.94185 | 36687 ft | 543 kts | 179° |
| 2026-05-05 18:41 | 39.29427 | 116.95712 | 36690 ft | 542 kts | 179° |
| 2026-05-05 18:42 | 39.21994 | 116.97618 | 36701 ft | 553 kts | 168° |
| 2026-05-05 18:42 | 39.18418 | 116.99532 | 36697 ft | 562 kts | 157° |
| 2026-05-05 18:42 | 39.15122 | 117.02303 | 36702 ft | 569 kts | 144° |
| 2026-05-05 18:43 | 39.12289 | 117.05870 | 36677 ft | 573 kts | 131° |
| 2026-05-05 18:43 | 39.10052 | 117.10100 | 36698 ft | 572 kts | 117° |
| 2026-05-05 18:43 | 39.08508 | 117.14795 | 36706 ft | 567 kts | 104° |
| 2026-05-05 18:43 | 39.07706 | 117.19720 | 36720 ft | 559 kts | 91° |
| 2026-05-05 18:44 | 39.07643 | 117.24663 | 36725 ft | 548 kts | 79° |
| 2026-05-05 18:44 | 39.08025 | 117.29533 | 36723 ft | 549 kts | 82° |
| 2026-05-05 18:44 | 39.07642 | 117.39429 | 36717 ft | 553 kts | 84° |
| 2026-05-05 18:45 | 39.07662 | 117.49278 | 36718 ft | 555 kts | 85° |
| 2026-05-05 18:45 | 39.07538 | 117.59197 | 36719 ft | 555 kts | 85° |
| 2026-05-05 18:46 | 39.07408 | 117.69122 | 36715 ft | 555 kts | 85° |
| 2026-05-05 18:46 | 39.07277 | 117.79047 | 36726 ft | 555 kts | 86° |
| 2026-05-05 18:47 | 39.07140 | 117.88970 | 36728 ft | 555 kts | 86° |
| 2026-05-05 18:47 | 39.06996 | 117.98899 | 36728 ft | 555 kts | 86° |
| 2026-05-05 18:48 | 39.06079 | 118.08822 | 36732 ft | 562 kts | 96° |
| 2026-05-05 18:48 | 39.04570 | 118.18710 | 36732 ft | 565 kts | 97° |
| 2026-05-05 18:49 | 39.02962 | 118.28618 | 36735 ft | 566 kts | 98° |
| 2026-05-05 18:49 | 39.01352 | 118.38527 | 36742 ft | 566 kts | 97° |
| 2026-05-05 18:50 | 38.99750 | 118.48438 | 36743 ft | 565 kts | 97° |
| 2026-05-05 18:50 | 38.98152 | 118.58323 | 36752 ft | 565 kts | 97° |
| 2026-05-05 18:51 | 38.96544 | 118.68201 | 36761 ft | 565 kts | 97° |
| 2026-05-05 18:51 | 38.94939 | 118.77995 | 36757 ft | 563 kts | 97° |
| 2026-05-05 18:52 | 38.93308 | 118.87894 | 36761 ft | 563 kts | 97° |
| 2026-05-05 18:52 | 38.91691 | 118.97659 | 36762 ft | 563 kts | 97° |
| 2026-05-05 18:53 | 38.90057 | 119.07464 | 36769 ft | 561 kts | 97° |
| 2026-05-05 18:53 | 38.88418 | 119.17250 | 36774 ft | 560 kts | 97° |
| 2026-05-05 18:54 | 38.86775 | 119.27016 | 36793 ft | 560 kts | 97° |
| 2026-05-05 18:54 | 38.85124 | 119.36767 | 36781 ft | 559 kts | 97° |
| 2026-05-05 18:55 | 38.83468 | 119.46496 | 36778 ft | 558 kts | 97° |
| 2026-05-05 18:55 | 38.81806 | 119.56217 | 36790 ft | 558 kts | 97° |
| 2026-05-05 18:56 | 38.80135 | 119.65930 | 36791 ft | 558 kts | 97° |
| 2026-05-05 18:56 | 38.78384 | 119.75612 | 36795 ft | 561 kts | 102° |
| 2026-05-05 18:57 | 38.76966 | 119.80294 | 36798 ft | 567 kts | 114° |
| 2026-05-05 18:57 | 38.74908 | 119.84616 | 36809 ft | 571 kts | 126° |
| 2026-05-05 18:57 | 38.72241 | 119.88395 | 36805 ft | 572 kts | 137° |
| 2026-05-05 18:57 | 38.69470 | 119.92044 | 36796 ft | 574 kts | 130° |
| 2026-05-05 18:58 | 38.65286 | 120.00642 | 36802 ft | 565 kts | 107° |
| 2026-05-05 18:58 | 38.63237 | 120.10229 | 36809 ft | 557 kts | 97° |
| 2026-05-05 18:59 | 38.61670 | 120.19905 | 36815 ft | 555 kts | 96° |
| 2026-05-05 18:59 | 38.60157 | 120.29570 | 36822 ft | 554 kts | 96° |
| 2026-05-05 19:00 | 38.58620 | 120.39211 | 36823 ft | 554 kts | 96° |
| 2026-05-05 19:00 | 38.57048 | 120.48852 | 36822 ft | 552 kts | 96° |
| 2026-05-05 19:01 | 38.55470 | 120.58433 | 36827 ft | 551 kts | 96° |
| 2026-05-05 19:01 | 38.53916 | 120.68021 | 36830 ft | 551 kts | 96° |
| 2026-05-05 19:02 | 38.52364 | 120.77595 | 36834 ft | 551 kts | 96° |
| 2026-05-05 19:02 | 38.50801 | 120.87179 | 36837 ft | 552 kts | 97° |
| 2026-05-05 19:03 | 38.49221 | 120.96789 | 36839 ft | 554 kts | 97° |
| 2026-05-05 19:03 | 38.47632 | 121.06384 | 36841 ft | 551 kts | 97° |
| 2026-05-05 19:04 | 38.46052 | 121.15882 | 36840 ft | 550 kts | 97° |
| 2026-05-05 19:04 | 38.44478 | 121.25496 | 36852 ft | 550 kts | 96° |
| 2026-05-05 19:05 | 38.42953 | 121.34976 | 36853 ft | 548 kts | 96° |
| 2026-05-05 19:05 | 38.41419 | 121.44485 | 36853 ft | 547 kts | 96° |
| 2026-05-05 19:06 | 38.39863 | 121.53985 | 37054 ft | 549 kts | 97° |
| 2026-05-05 19:06 | 38.39084 | 121.58649 | 37479 ft | 546 kts | 96° |
| 2026-05-05 19:06 | 38.38289 | 121.63381 | 37839 ft | 545 kts | 96° |
| 2026-05-05 19:07 | 38.37494 | 121.68113 | 38110 ft | 546 kts | 96° |
| 2026-05-05 19:07 | 38.36966 | 121.71255 | 38282 ft | 547 kts | 96° |
| 2026-05-05 19:07 | 38.35901 | 121.77589 | 38630 ft | 547 kts | 95° |
| 2026-05-05 19:07 | 38.35102 | 121.82320 | 38822 ft | 548 kts | 96° |
| 2026-05-05 19:08 | 38.33496 | 121.91777 | 38875 ft | 544 kts | 96° |
| 2026-05-05 19:08 | 38.31893 | 122.01183 | 38875 ft | 543 kts | 96° |
| 2026-05-05 19:09 | 38.30286 | 122.10582 | 38875 ft | 543 kts | 97° |
| 2026-05-05 19:09 | 38.28671 | 122.19965 | 38897 ft | 542 kts | 97° |
| 2026-05-05 19:10 | 38.27082 | 122.29333 | 38899 ft | 540 kts | 95° |
| 2026-05-05 19:10 | 38.25667 | 122.38712 | 38892 ft | 542 kts | 100° |
| 2026-05-05 19:11 | 38.22642 | 122.47552 | 38894 ft | 552 kts | 123° |
| 2026-05-05 19:11 | 38.17607 | 122.54936 | 38893 ft | 556 kts | 134° |
| 2026-05-05 19:12 | 38.12165 | 122.61871 | 38901 ft | 558 kts | 135° |
| 2026-05-05 19:12 | 38.06674 | 122.68806 | 38908 ft | 555 kts | 135° |
| 2026-05-05 19:13 | 38.01279 | 122.75765 | 38916 ft | 553 kts | 134° |
| 2026-05-05 19:13 | 37.95911 | 122.82732 | 38915 ft | 553 kts | 134° |
| 2026-05-05 19:14 | 37.90530 | 122.89703 | 38930 ft | 553 kts | 135° |
| 2026-05-05 19:14 | 37.85167 | 122.96625 | 38926 ft | 549 kts | 135° |
| 2026-05-05 19:15 | 37.79827 | 123.03499 | 38931 ft | 548 kts | 135° |
| 2026-05-05 19:15 | 37.75382 | 123.09210 | 38937 ft | 548 kts | 135° |
| 2026-05-05 19:16 | 37.70034 | 123.16067 | 38953 ft | 548 kts | 135° |
| 2026-05-05 19:16 | 37.64696 | 123.22895 | 38942 ft | 545 kts | 135° |
| 2026-05-05 19:17 | 37.59376 | 123.29686 | 38952 ft | 543 kts | 135° |
| 2026-05-05 19:17 | 37.54439 | 123.36880 | 38953 ft | 543 kts | 128° |
| 2026-05-05 19:18 | 37.49868 | 123.44452 | 38970 ft | 543 kts | 126° |
| 2026-05-05 19:18 | 37.45349 | 123.52064 | 38961 ft | 542 kts | 126° |
| 2026-05-05 19:19 | 37.40830 | 123.59655 | 38965 ft | 542 kts | 127° |
| 2026-05-05 19:19 | 37.36296 | 123.67229 | 38967 ft | 542 kts | 127° |
| 2026-05-05 19:20 | 37.31756 | 123.74784 | 38976 ft | 540 kts | 127° |
| 2026-05-05 19:20 | 37.27234 | 123.82293 | 38980 ft | 538 kts | 127° |
| 2026-05-05 19:21 | 37.22717 | 123.89778 | 38971 ft | 538 kts | 127° |
| 2026-05-05 19:21 | 37.18754 | 123.97636 | 38979 ft | 536 kts | 112° |
| 2026-05-05 19:22 | 37.17523 | 124.02081 | 38987 ft | 531 kts | 101° |
| 2026-05-05 19:22 | 37.16960 | 124.06569 | 38987 ft | 525 kts | 90° |
| 2026-05-05 19:22 | 37.17044 | 124.15668 | 38987 ft | 521 kts | 84° |
| 2026-05-05 19:23 | 37.17424 | 124.24739 | 38992 ft | 520 kts | 84° |
| 2026-05-05 19:23 | 37.17747 | 124.33801 | 38997 ft | 521 kts | 85° |
| 2026-05-05 19:24 | 37.17969 | 124.42880 | 38999 ft | 521 kts | 85° |
| 2026-05-05 19:24 | 37.18172 | 124.51958 | 39002 ft | 521 kts | 86° |
| 2026-05-05 19:25 | 37.18366 | 124.61035 | 39006 ft | 521 kts | 86° |
| 2026-05-05 19:25 | 37.18561 | 124.70121 | 39008 ft | 521 kts | 86° |
| 2026-05-05 19:26 | 37.18753 | 124.79193 | 39015 ft | 521 kts | 86° |
| 2026-05-05 19:26 | 37.18937 | 124.88271 | 39023 ft | 520 kts | 86° |
| 2026-05-05 19:27 | 37.19113 | 124.97272 | 39023 ft | 520 kts | 86° |
| 2026-05-05 19:27 | 37.19282 | 125.06341 | 39029 ft | 520 kts | 87° |
| 2026-05-05 19:28 | 37.19445 | 125.15398 | 39028 ft | 519 kts | 87° |
| 2026-05-05 19:28 | 37.19601 | 125.24454 | 39030 ft | 520 kts | 87° |
| 2026-05-05 19:29 | 37.19750 | 125.33507 | 39034 ft | 519 kts | 88° |
| 2026-05-05 19:29 | 37.19892 | 125.42563 | 39039 ft | 519 kts | 88° |
| 2026-05-05 19:30 | 37.20028 | 125.51605 | 39050 ft | 519 kts | 88° |
| 2026-05-05 19:30 | 37.20157 | 125.60664 | 39057 ft | 519 kts | 88° |
| 2026-05-05 19:31 | 37.20277 | 125.69707 | 39051 ft | 519 kts | 88° |
| 2026-05-05 19:31 | 37.20392 | 125.78763 | 39050 ft | 519 kts | 88° |
| 2026-05-05 19:32 | 37.20500 | 125.87811 | 39056 ft | 519 kts | 88° |
| 2026-05-05 19:32 | 37.20599 | 125.96868 | 39059 ft | 519 kts | 88° |
| 2026-05-05 19:33 | 37.20692 | 126.05926 | 39062 ft | 519 kts | 88° |
| 2026-05-05 19:33 | 37.20778 | 126.14979 | 39060 ft | 519 kts | 89° |
| 2026-05-05 19:34 | 37.20858 | 126.24033 | 39059 ft | 519 kts | 89° |
| 2026-05-05 19:35 | 37.20965 | 126.37625 | 39067 ft | 520 kts | 89° |
| 2026-05-05 19:35 | 37.21026 | 126.46630 | 39068 ft | 520 kts | 89° |
| 2026-05-05 19:36 | 37.21082 | 126.55705 | 39073 ft | 520 kts | 89° |
| 2026-05-05 19:36 | 37.21129 | 126.64788 | 39075 ft | 521 kts | 89° |
| 2026-05-05 19:37 | 37.21169 | 126.73878 | 39075 ft | 520 kts | 89° |
| 2026-05-05 19:37 | 37.21203 | 126.82944 | 39081 ft | 521 kts | 90° |
| 2026-05-05 19:38 | 37.21405 | 126.92029 | 39082 ft | 521 kts | 82° |
| 2026-05-05 19:38 | 37.23351 | 127.00694 | 39088 ft | 516 kts | 62° |
| 2026-05-05 19:39 | 37.27387 | 127.08054 | 39109 ft | 511 kts | 47° |
| 2026-05-05 19:39 | 37.32085 | 127.14742 | 39107 ft | 510 kts | 45° |
| 2026-05-05 19:40 | 37.36845 | 127.21341 | 39108 ft | 509 kts | 46° |
| 2026-05-05 19:40 | 37.41581 | 127.27973 | 39110 ft | 510 kts | 46° |
| 2026-05-05 19:41 | 37.46177 | 127.34776 | 39108 ft | 513 kts | 53° |
| 2026-05-05 19:41 | 37.49315 | 127.42823 | 39103 ft | 516 kts | 73° |
| 2026-05-05 19:42 | 37.50956 | 127.51644 | 39097 ft | 519 kts | 78° |
| 2026-05-05 19:42 | 37.52341 | 127.60585 | 39098 ft | 521 kts | 79° |
| 2026-05-05 19:43 | 37.53706 | 127.69487 | 39100 ft | 521 kts | 78° |
| 2026-05-05 19:43 | 37.55110 | 127.78454 | 39105 ft | 522 kts | 78° |
| 2026-05-05 19:44 | 37.56524 | 127.87438 | 39108 ft | 523 kts | 78° |
| 2026-05-05 19:44 | 37.57935 | 127.96427 | 39104 ft | 522 kts | 79° |
| 2026-05-05 19:45 | 37.59340 | 128.05421 | 39108 ft | 524 kts | 79° |
| 2026-05-05 19:45 | 37.60740 | 128.14446 | 39110 ft | 525 kts | 79° |
| 2026-05-05 19:46 | 37.62133 | 128.23475 | 39108 ft | 524 kts | 79° |
| 2026-05-05 19:46 | 37.63519 | 128.32510 | 39101 ft | 525 kts | 79° |
| 2026-05-05 19:47 | 37.64898 | 128.41548 | 39089 ft | 525 kts | 79° |
| 2026-05-05 19:47 | 37.66271 | 128.50589 | 39081 ft | 525 kts | 79° |
| 2026-05-05 19:48 | 37.67637 | 128.59633 | 39071 ft | 524 kts | 79° |
| 2026-05-05 19:48 | 37.68777 | 128.68711 | 39052 ft | 523 kts | 88° |
| 2026-05-05 19:49 | 37.68014 | 128.77775 | 39041 ft | 520 kts | 109° |
| 2026-05-05 19:49 | 37.64991 | 128.86004 | 39024 ft | 517 kts | 123° |
| 2026-05-05 19:50 | 37.61270 | 128.93780 | 39024 ft | 518 kts | 125° |
| 2026-05-05 19:50 | 37.57471 | 129.01519 | 39017 ft | 519 kts | 125° |
| 2026-05-05 19:51 | 37.53700 | 129.09272 | 39015 ft | 519 kts | 125° |
| 2026-05-05 19:51 | 37.49943 | 129.17048 | 39009 ft | 519 kts | 125° |
| 2026-05-05 19:52 | 37.46195 | 129.24803 | 39007 ft | 519 kts | 125° |
| 2026-05-05 19:52 | 37.42441 | 129.32556 | 39007 ft | 518 kts | 125° |
| 2026-05-05 19:53 | 37.38716 | 129.40230 | 39006 ft | 518 kts | 125° |
| 2026-05-05 19:53 | 37.34952 | 129.47962 | 39007 ft | 518 kts | 125° |
| 2026-05-05 19:54 | 37.31192 | 129.55671 | 39008 ft | 518 kts | 126° |
| 2026-05-05 19:54 | 37.27427 | 129.63372 | 39006 ft | 518 kts | 126° |
| 2026-05-05 19:55 | 37.23651 | 129.71077 | 39010 ft | 518 kts | 126° |
| 2026-05-05 19:55 | 37.19871 | 129.78775 | 39012 ft | 518 kts | 126° |
| 2026-05-05 19:56 | 37.16090 | 129.86458 | 39014 ft | 518 kts | 126° |
| 2026-05-05 19:56 | 37.12297 | 129.94144 | 39018 ft | 518 kts | 126° |
| 2026-05-05 19:57 | 37.08497 | 130.01823 | 39018 ft | 518 kts | 126° |
| 2026-05-05 19:57 | 37.04697 | 130.09486 | 39021 ft | 519 kts | 126° |
| 2026-05-05 19:58 | 37.00887 | 130.17157 | 39029 ft | 519 kts | 127° |
| 2026-05-05 19:58 | 36.97071 | 130.24819 | 39037 ft | 519 kts | 127° |
| 2026-05-05 19:59 | 36.93248 | 130.32477 | 39038 ft | 520 kts | 127° |
| 2026-05-05 19:59 | 36.89442 | 130.40083 | 39042 ft | 520 kts | 127° |
| 2026-05-05 20:00 | 36.85605 | 130.47736 | 39041 ft | 520 kts | 127° |
| 2026-05-05 20:00 | 36.81757 | 130.55391 | 39050 ft | 521 kts | 127° |
| 2026-05-05 20:01 | 36.77905 | 130.63039 | 39053 ft | 521 kts | 127° |
| 2026-05-05 20:01 | 36.74044 | 130.70690 | 39057 ft | 521 kts | 127° |
| 2026-05-05 20:02 | 36.70179 | 130.78332 | 39063 ft | 521 kts | 127° |
| 2026-05-05 20:02 | 36.66310 | 130.85960 | 39060 ft | 521 kts | 128° |
| 2026-05-05 20:03 | 36.62435 | 130.93584 | 39071 ft | 521 kts | 128° |
| 2026-05-05 20:03 | 36.58555 | 131.01199 | 39074 ft | 522 kts | 128° |
| 2026-05-05 20:04 | 36.54666 | 131.08817 | 39070 ft | 522 kts | 128° |
| 2026-05-05 20:04 | 36.50771 | 131.16432 | 39066 ft | 522 kts | 128° |
| 2026-05-05 20:05 | 36.46866 | 131.24047 | 39075 ft | 523 kts | 128° |
| 2026-05-05 20:05 | 36.42951 | 131.31664 | 39087 ft | 523 kts | 128° |
| 2026-05-05 20:06 | 36.39696 | 131.37988 | 39088 ft | 523 kts | 129° |
| 2026-05-05 20:06 | 36.36326 | 131.46078 | 39099 ft | 535 kts | 117° |
| 2026-05-05 20:07 | 36.33741 | 131.54727 | 39099 ft | 536 kts | 115° |
| 2026-05-05 20:07 | 36.31271 | 131.63452 | 39099 ft | 537 kts | 115° |
| 2026-05-05 20:08 | 36.28788 | 131.72194 | 39102 ft | 538 kts | 115° |
| 2026-05-05 20:08 | 36.26279 | 131.80922 | 39092 ft | 538 kts | 116° |
| 2026-05-05 20:09 | 36.23746 | 131.89669 | 39108 ft | 540 kts | 116° |
| 2026-05-05 20:09 | 36.21203 | 131.98416 | 39109 ft | 540 kts | 116° |
| 2026-05-05 20:10 | 36.18655 | 132.07159 | 39113 ft | 541 kts | 116° |
| 2026-05-05 20:10 | 36.16093 | 132.15922 | 39119 ft | 541 kts | 116° |
| 2026-05-05 20:11 | 36.13525 | 132.24681 | 39120 ft | 542 kts | 116° |
| 2026-05-05 20:11 | 36.10964 | 132.33385 | 39129 ft | 542 kts | 116° |
| 2026-05-05 20:12 | 36.08385 | 132.42130 | 39108 ft | 541 kts | 116° |
| 2026-05-05 20:12 | 36.05782 | 132.50925 | 39123 ft | 542 kts | 116° |
| 2026-05-05 20:13 | 36.03183 | 132.59672 | 39128 ft | 542 kts | 116° |
| 2026-05-05 20:13 | 36.00597 | 132.68354 | 39130 ft | 543 kts | 117° |
| 2026-05-05 20:14 | 35.97982 | 132.77109 | 39130 ft | 543 kts | 117° |
| 2026-05-05 20:14 | 35.95361 | 132.85859 | 39130 ft | 543 kts | 117° |
| 2026-05-05 20:15 | 35.92735 | 132.94593 | 39134 ft | 543 kts | 117° |
| 2026-05-05 20:15 | 35.90099 | 133.03334 | 39112 ft | 543 kts | 117° |
| 2026-05-05 20:16 | 35.87459 | 133.12065 | 39137 ft | 544 kts | 117° |
| 2026-05-05 20:16 | 35.84803 | 133.20817 | 39138 ft | 545 kts | 117° |
| 2026-05-05 20:17 | 35.82144 | 133.29558 | 39139 ft | 545 kts | 118° |
| 2026-05-05 20:17 | 35.79470 | 133.38316 | 39140 ft | 546 kts | 118° |
| 2026-05-05 20:18 | 35.76792 | 133.47065 | 39134 ft | 547 kts | 118° |
| 2026-05-05 20:18 | 35.74097 | 133.55838 | 39140 ft | 548 kts | 118° |
| 2026-05-05 20:19 | 35.71398 | 133.64601 | 39139 ft | 548 kts | 118° |
| 2026-05-05 20:19 | 35.68708 | 133.73312 | 39143 ft | 548 kts | 118° |
| 2026-05-05 20:20 | 35.65993 | 133.82071 | 39149 ft | 548 kts | 118° |
| 2026-05-05 20:20 | 35.63272 | 133.90826 | 39148 ft | 549 kts | 118° |
| 2026-05-05 20:21 | 35.60534 | 133.99602 | 39152 ft | 550 kts | 119° |
| 2026-05-05 20:21 | 35.57792 | 134.08370 | 39128 ft | 551 kts | 119° |
| 2026-05-05 20:22 | 35.55038 | 134.17152 | 39127 ft | 551 kts | 119° |
| 2026-05-05 20:22 | 35.52277 | 134.25930 | 39127 ft | 551 kts | 119° |
| 2026-05-05 20:23 | 35.49505 | 134.34715 | 39135 ft | 553 kts | 120° |
| 2026-05-05 20:23 | 35.46722 | 134.43506 | 39131 ft | 552 kts | 120° |
| 2026-05-05 20:24 | 35.43933 | 134.52290 | 39170 ft | 553 kts | 120° |
| 2026-05-05 20:24 | 35.41136 | 134.61079 | 39176 ft | 553 kts | 120° |
| 2026-05-05 20:25 | 35.38328 | 134.69872 | 39183 ft | 554 kts | 120° |
| 2026-05-05 20:25 | 35.35510 | 134.78670 | 39187 ft | 556 kts | 120° |
| 2026-05-05 20:26 | 35.32681 | 134.87486 | 39188 ft | 555 kts | 120° |
| 2026-05-05 20:26 | 35.29848 | 134.96280 | 39187 ft | 555 kts | 120° |
| 2026-05-05 20:27 | 35.27011 | 135.05066 | 39182 ft | 555 kts | 121° |
| 2026-05-05 20:27 | 35.24159 | 135.13861 | 39195 ft | 557 kts | 121° |
| 2026-05-05 20:28 | 35.21295 | 135.22665 | 39197 ft | 557 kts | 121° |
| 2026-05-05 20:28 | 35.18425 | 135.31471 | 39200 ft | 558 kts | 121° |
| 2026-05-05 20:29 | 35.15544 | 135.40280 | 39206 ft | 559 kts | 121° |
| 2026-05-05 20:29 | 35.12651 | 135.49105 | 39183 ft | 560 kts | 121° |
| 2026-05-05 20:30 | 35.09748 | 135.57932 | 39209 ft | 561 kts | 121° |
| 2026-05-05 20:30 | 35.06851 | 135.66720 | 39210 ft | 562 kts | 121° |
| 2026-05-05 20:31 | 35.03922 | 135.75575 | 39212 ft | 563 kts | 121° |
| 2026-05-05 20:31 | 35.01339 | 135.84676 | 39223 ft | 577 kts | 110° |
| 2026-05-05 20:32 | 34.99642 | 135.94263 | 39208 ft | 579 kts | 108° |
| 2026-05-05 20:32 | 34.98103 | 136.03918 | 39220 ft | 581 kts | 108° |
| 2026-05-05 20:33 | 34.96560 | 136.13593 | 39220 ft | 582 kts | 108° |
| 2026-05-05 20:33 | 34.94985 | 136.23272 | 39228 ft | 583 kts | 108° |
| 2026-05-05 20:34 | 34.93387 | 136.32959 | 39223 ft | 583 kts | 108° |
| 2026-05-05 20:34 | 34.91774 | 136.42664 | 39237 ft | 585 kts | 108° |
| 2026-05-05 20:35 | 34.90155 | 136.52369 | 39232 ft | 585 kts | 108° |
| 2026-05-05 20:35 | 34.88528 | 136.62089 | 39233 ft | 586 kts | 108° |
| 2026-05-05 20:36 | 34.86889 | 136.71822 | 39241 ft | 587 kts | 108° |
| 2026-05-05 20:36 | 34.85241 | 136.81552 | 39239 ft | 587 kts | 108° |
| 2026-05-05 20:37 | 34.83584 | 136.91286 | 39218 ft | 588 kts | 108° |
| 2026-05-05 20:37 | 34.82042 | 137.01076 | 39239 ft | 591 kts | 104° |
| 2026-05-05 20:38 | 34.81004 | 137.11021 | 39234 ft | 593 kts | 102° |
| 2026-05-05 20:38 | 34.80032 | 137.20984 | 39238 ft | 592 kts | 103° |
| 2026-05-05 20:39 | 34.78966 | 137.30906 | 39238 ft | 591 kts | 103° |
| 2026-05-05 20:39 | 34.77848 | 137.40744 | 39095 ft | 590 kts | 103° |
| 2026-05-05 20:39 | 34.77277 | 137.45684 | 38690 ft | 591 kts | 103° |
| 2026-05-05 20:40 | 34.76704 | 137.50637 | 38148 ft | 592 kts | 104° |
| 2026-05-05 20:40 | 34.76129 | 137.55596 | 37610 ft | 593 kts | 104° |
| 2026-05-05 20:40 | 34.75550 | 137.60571 | 37084 ft | 594 kts | 104° |
| 2026-05-05 20:40 | 34.74972 | 137.65536 | 36580 ft | 595 kts | 104° |
| 2026-05-05 20:41 | 34.74395 | 137.70523 | 36076 ft | 596 kts | 104° |
| 2026-05-05 20:41 | 34.73873 | 137.75535 | 35579 ft | 597 kts | 103° |
| 2026-05-05 20:41 | 34.73402 | 137.80547 | 35109 ft | 598 kts | 103° |
| 2026-05-05 20:41 | 34.72949 | 137.85578 | 34535 ft | 599 kts | 103° |
| 2026-05-05 20:42 | 34.72494 | 137.90614 | 33915 ft | 600 kts | 103° |
| 2026-05-05 20:42 | 34.72029 | 137.95660 | 33231 ft | 601 kts | 103° |
| 2026-05-05 20:42 | 34.71558 | 138.00713 | 32587 ft | 602 kts | 102° |
| 2026-05-05 20:42 | 34.71398 | 138.05815 | 31962 ft | 606 kts | 96° |
| 2026-05-05 20:43 | 34.71346 | 138.10949 | 31351 ft | 608 kts | 95° |
| 2026-05-05 20:43 | 34.71339 | 138.16096 | 30744 ft | 609 kts | 94° |
| 2026-05-05 20:43 | 34.71360 | 138.21236 | 30139 ft | 610 kts | 93° |
| 2026-05-05 20:43 | 34.71392 | 138.26396 | 29448 ft | 608 kts | 93° |
| 2026-05-05 20:44 | 34.71427 | 138.31506 | 28795 ft | 602 kts | 93° |
| 2026-05-05 20:44 | 34.71456 | 138.36560 | 28142 ft | 594 kts | 93° |
| 2026-05-05 20:44 | 34.71478 | 138.41560 | 27525 ft | 586 kts | 93° |
| 2026-05-05 20:44 | 34.71493 | 138.46459 | 27026 ft | 576 kts | 93° |
| 2026-05-05 20:45 | 34.71505 | 138.56040 | 25939 ft | 558 kts | 94° |
| 2026-05-05 20:45 | 34.71506 | 138.60707 | 25466 ft | 548 kts | 94° |
| 2026-05-05 20:45 | 34.71505 | 138.65285 | 25117 ft | 536 kts | 94° |
| 2026-05-05 20:46 | 34.71501 | 138.69760 | 24744 ft | 524 kts | 94° |
| 2026-05-05 20:46 | 34.71495 | 138.74151 | 24312 ft | 515 kts | 94° |
| 2026-05-05 20:46 | 34.71486 | 138.78477 | 23863 ft | 507 kts | 94° |
| 2026-05-05 20:46 | 34.71477 | 138.82719 | 23337 ft | 498 kts | 95° |
| 2026-05-05 20:47 | 34.71465 | 138.86885 | 22795 ft | 489 kts | 94° |
| 2026-05-05 20:47 | 34.71447 | 138.90988 | 22285 ft | 481 kts | 94° |
| 2026-05-05 20:47 | 34.71427 | 138.95013 | 21786 ft | 473 kts | 94° |
| 2026-05-05 20:47 | 34.71407 | 138.98976 | 21298 ft | 465 kts | 94° |
| 2026-05-05 20:48 | 34.71389 | 139.02873 | 20808 ft | 457 kts | 94° |
| 2026-05-05 20:48 | 34.71380 | 139.06703 | 20329 ft | 450 kts | 94° |
| 2026-05-05 20:48 | 34.71369 | 139.10482 | 19861 ft | 443 kts | 94° |
| 2026-05-05 20:48 | 34.71352 | 139.14198 | 19399 ft | 437 kts | 94° |
| 2026-05-05 20:49 | 34.71333 | 139.17864 | 18937 ft | 430 kts | 94° |
| 2026-05-05 20:49 | 34.71312 | 139.21477 | 18491 ft | 424 kts | 94° |
| 2026-05-05 20:49 | 34.71289 | 139.25034 | 17950 ft | 418 kts | 94° |
| 2026-05-05 20:49 | 34.71266 | 139.28539 | 17388 ft | 413 kts | 94° |
| 2026-05-05 20:50 | 34.71241 | 139.32021 | 16753 ft | 410 kts | 94° |
| 2026-05-05 20:50 | 34.71225 | 139.34309 | 16329 ft | 408 kts | 94° |
| 2026-05-05 20:50 | 34.71218 | 139.38854 | 15501 ft | 405 kts | 91° |
| 2026-05-05 20:50 | 34.71715 | 139.42257 | 14893 ft | 405 kts | 73° |
| 2026-05-05 20:51 | 34.72918 | 139.45323 | 14484 ft | 398 kts | 63° |
| 2026-05-05 20:51 | 34.74236 | 139.48179 | 14253 ft | 376 kts | 63° |
| 2026-05-05 20:51 | 34.75487 | 139.50900 | 14033 ft | 362 kts | 64° |
| 2026-05-05 20:51 | 34.76673 | 139.53493 | 13775 ft | 350 kts | 64° |
| 2026-05-05 20:52 | 34.77461 | 139.55219 | 13609 ft | 342 kts | 64° |
| 2026-05-05 20:52 | 34.78975 | 139.58530 | 13242 ft | 328 kts | 64° |
| 2026-05-05 20:52 | 34.79706 | 139.60130 | 12987 ft | 324 kts | 64° |
| 2026-05-05 20:52 | 34.81132 | 139.63247 | 12676 ft | 311 kts | 64° |
| 2026-05-05 20:53 | 34.82165 | 139.65504 | 12512 ft | 300 kts | 64° |
| 2026-05-05 20:53 | 34.83163 | 139.67685 | 12293 ft | 290 kts | 65° |
| 2026-05-05 20:53 | 34.84135 | 139.69816 | 11942 ft | 287 kts | 65° |
| 2026-05-05 20:53 | 34.85099 | 139.71934 | 11577 ft | 285 kts | 65° |
| 2026-05-05 20:54 | 34.85746 | 139.73355 | 11320 ft | 284 kts | 65° |
| 2026-05-05 20:54 | 34.86697 | 139.75446 | 10954 ft | 282 kts | 65° |
| 2026-05-05 20:54 | 34.87525 | 139.77589 | 10583 ft | 277 kts | 77° |
| 2026-05-05 20:54 | 34.87701 | 139.79861 | 10223 ft | 267 kts | 103° |
| 2026-05-05 20:55 | 34.87269 | 139.82040 | 9790 ft | 264 kts | 111° |
| 2026-05-05 20:55 | 34.86728 | 139.84172 | 9371 ft | 263 kts | 110° |
| 2026-05-05 20:55 | 34.86463 | 139.86351 | 8963 ft | 266 kts | 94° |
| 2026-05-05 20:55 | 34.86818 | 139.88562 | 8545 ft | 270 kts | 70° |
| 2026-05-05 20:56 | 34.87950 | 139.90386 | 8165 ft | 274 kts | 40° |
| 2026-05-05 20:56 | 34.89681 | 139.91348 | 7793 ft | 276 kts | 15° |
| 2026-05-05 20:56 | 34.91548 | 139.91829 | 7445 ft | 274 kts | 12° |
| 2026-05-05 20:56 | 34.93415 | 139.92269 | 7091 ft | 273 kts | 13° |
| 2026-05-05 20:57 | 34.95272 | 139.92726 | 6739 ft | 272 kts | 13° |
| 2026-05-05 20:57 | 34.97119 | 139.93201 | 6328 ft | 271 kts | 13° |
| 2026-05-05 20:57 | 34.98939 | 139.93681 | 6114 ft | 263 kts | 13° |
| 2026-05-05 20:57 | 35.00684 | 139.94144 | 6009 ft | 250 kts | 13° |
| 2026-05-05 20:58 | 35.02329 | 139.94583 | 6005 ft | 237 kts | 13° |
| 2026-05-05 20:58 | 35.03930 | 139.95012 | 6003 ft | 235 kts | 14° |
| 2026-05-05 20:58 | 35.05526 | 139.95442 | 6001 ft | 235 kts | 14° |
| 2026-05-05 20:58 | 35.07125 | 139.95875 | 5999 ft | 235 kts | 14° |
| 2026-05-05 20:59 | 35.08723 | 139.96308 | 5997 ft | 235 kts | 14° |
| 2026-05-05 20:59 | 35.10324 | 139.96742 | 5999 ft | 236 kts | 14° |
| 2026-05-05 20:59 | 35.11924 | 139.97177 | 5995 ft | 236 kts | 14° |
| 2026-05-05 20:59 | 35.13526 | 139.97611 | 5999 ft | 237 kts | 14° |
| 2026-05-05 21:00 | 35.15150 | 139.97976 | 5999 ft | 237 kts | 7° |
| 2026-05-05 21:00 | 35.16796 | 139.98100 | 5950 ft | 238 kts | 3° |
| 2026-05-05 21:00 | 35.18463 | 139.98160 | 5601 ft | 239 kts | 1° |
| 2026-05-05 21:00 | 35.20108 | 139.98208 | 5353 ft | 234 kts | 1° |
| 2026-05-05 21:01 | 35.21729 | 139.98259 | 5081 ft | 232 kts | 0° |
| 2026-05-05 21:01 | 35.23338 | 139.98312 | 5002 ft | 232 kts | 0° |
| 2026-05-05 21:01 | 35.24949 | 139.98305 | 4994 ft | 231 kts | 353° |
| 2026-05-05 21:01 | 35.26488 | 139.97818 | 4999 ft | 227 kts | 333° |
| 2026-05-05 21:02 | 35.27869 | 139.96921 | 4993 ft | 224 kts | 326° |
| 2026-05-05 21:02 | 35.29205 | 139.95936 | 4994 ft | 223 kts | 326° |
| 2026-05-05 21:02 | 35.30547 | 139.94978 | 4996 ft | 224 kts | 327° |
| 2026-05-05 21:02 | 35.31901 | 139.94029 | 4983 ft | 223 kts | 327° |
| 2026-05-05 21:03 | 35.33235 | 139.93093 | 4812 ft | 220 kts | 327° |
| 2026-05-05 21:03 | 35.34555 | 139.92140 | 4626 ft | 220 kts | 326° |
| 2026-05-05 21:03 | 35.35883 | 139.91189 | 4207 ft | 223 kts | 327° |
| 2026-05-05 21:03 | 35.37234 | 139.90239 | 3814 ft | 224 kts | 327° |
| 2026-05-05 21:04 | 35.38585 | 139.89284 | 3451 ft | 223 kts | 326° |
| 2026-05-05 21:04 | 35.39899 | 139.88352 | 3159 ft | 218 kts | 327° |
| 2026-05-05 21:04 | 35.41200 | 139.87429 | 2863 ft | 213 kts | 327° |
| 2026-05-05 21:04 | 35.42471 | 139.86527 | 2572 ft | 209 kts | 327° |
| 2026-05-05 21:05 | 35.43697 | 139.85658 | 2301 ft | 197 kts | 327° |
| 2026-05-05 21:05 | 35.44855 | 139.84835 | 2049 ft | 188 kts | 326° |
| 2026-05-05 21:05 | 35.45958 | 139.84050 | 1791 ft | 179 kts | 326° |
| 2026-05-05 21:05 | 35.47004 | 139.83307 | 1557 ft | 169 kts | 327° |
| 2026-05-05 21:06 | 35.47990 | 139.82605 | 1333 ft | 159 kts | 327° |
| 2026-05-05 21:06 | 35.48922 | 139.81939 | 1112 ft | 150 kts | 328° |
| 2026-05-05 21:06 | 35.49815 | 139.81304 | 934 ft | 147 kts | 328° |
| 2026-05-05 21:06 | 35.50696 | 139.80676 | 732 ft | 146 kts | 329° |
| 2026-05-05 21:07 | 35.51573 | 139.80049 | 539 ft | 145 kts | 329° |
| 2026-05-05 21:07 | 35.52440 | 139.79425 | 335 ft | 145 kts | 328° |
| 2026-05-05 21:07 | 35.53318 | 139.78798 | 163 ft | 146 kts | 329° |
| 2026-05-05 21:07 | 35.54191 | 139.78187 | 38 ft | 140 kts | 329° |
| 2026-05-05 21:08 | 35.54972 | 139.77634 | 31 ft | 117 kts | 330° |
| 2026-05-05 21:08 | 35.55548 | 139.77229 | 30 ft | 52 kts | 330° |
| 2026-05-05 21:08 | 35.55666 | 139.77115 | 30 ft | 16 kts | 291° |
| 2026-05-05 21:08 | 35.55608 | 139.77006 | 29 ft | 18 kts | 213° |
| 2026-05-05 21:09 | 35.55488 | 139.77014 | 29 ft | 20 kts | 153° |
| 2026-05-05 21:09 | 35.55360 | 139.77104 | 29 ft | 23 kts | 150° |
| 2026-05-05 21:09 | 35.55240 | 139.77191 | 29 ft | 18 kts | 151° |
| 2026-05-05 21:09 | 35.55151 | 139.77121 | 29 ft | 18 kts | 240° |
| 2026-05-05 21:10 | 35.55084 | 139.76975 | 29 ft | 21 kts | 242° |
| 2026-05-05 21:10 | 35.55030 | 139.76860 | 29 ft | 12 kts | 239° |
| 2026-05-05 21:10 | 35.54987 | 139.76768 | 29 ft | 12 kts | 242° |
| 2026-05-05 21:10 | 35.54930 | 139.76721 | 29 ft | 7 kts | 162° |
| 2026-05-05 21:11 | 35.54901 | 139.76739 | 29 ft | 2 kts | 152° |
| 2026-05-05 21:11 | 35.54899 | 139.76740 | 29 ft | 0 kts | 152° |
| 2026-05-05 21:12 | 35.54867 | 139.76647 | 29 ft | 0 kts | 150° |
| 2026-05-05 21:13 | 35.54859 | 139.76652 | 29 ft | 0 kts | 150° |
| 2026-05-05 21:14 | 35.54914 | 139.76730 | 30 ft | 0 kts | 150° |
| 2026-05-05 21:14 | 35.54906 | 139.76736 | 29 ft | 0 kts | 150° |
| 2026-05-05 21:14 | 35.54903 | 139.76736 | 29 ft | 0 kts | 150° |